Observation data for Canadian on 08/14/2020      Previous  Date  Next       Current Mesonet Observations  Soil Data  Daily Summary Page  Observations in Plain Language
KCA1 140500Z 05015KT 26/23 A2993 RMK A01 T02620233  RH  084%=      5-min Rain = 0
KCA1 140501Z 05014KT 26/23 A2993 RMK A01 T02620233  RH  084%=      5-min Rain = 0
KCA1 140502Z 04014KT 26/23 A2993 RMK A01 T02620233  RH  084%=      5-min Rain = 0
KCA1 140503Z 04012KT 26/23 A2993 RMK A01 T02620233  RH  084%=      5-min Rain = 0
KCA1 140504Z 05012KT 26/23 A2993 RMK A01 T02610233  RH  084%=      5-min Rain = 0
KCA1 140505Z 04013KT 26/23 A2993 RMK A01 T02610233  RH  085%=      5-min Rain = 0
KCA1 140506Z 04014KT 26/23 A2993 RMK A01 T02610233  RH  085%=      5-min Rain = 0
KCA1 140507Z 04015KT 26/23 A2993 RMK A01 T02600233  RH  085%=      5-min Rain = 0
KCA1 140508Z 04015KT 26/23 A2993 RMK A01 T02600233  RH  085%=      5-min Rain = 0
KCA1 140509Z 05015KT 26/23 A2993 RMK A01 T02600233  RH  085%=      5-min Rain = 0
KCA1 140510Z 05014KT 26/23 A2993 RMK A01 T02600233  RH  085%=      5-min Rain = 0
KCA1 140511Z 05014KT 26/23 A2993 RMK A01 T02610233  RH  085%=      5-min Rain = 0
KCA1 140512Z 05014KT 26/23 A2993 RMK A01 T02600233  RH  085%=      5-min Rain = 0
KCA1 140513Z 05015KT 26/23 A2993 RMK A01 T02600234  RH  085%=      5-min Rain = 0
KCA1 140514Z 05014KT 26/23 A2993 RMK A01 T02600234  RH  085%=      5-min Rain = 0
KCA1 140515Z 05013KT 26/23 A2993 RMK A01 T02590234  RH  086%=      5-min Rain = 0
KCA1 140516Z 05013KT 26/23 A2993 RMK A01 T02590234  RH  086%=      5-min Rain = 0
KCA1 140517Z 05012KT 26/23 A2993 RMK A01 T02590234  RH  086%=      5-min Rain = 0
KCA1 140518Z 05012KT 26/23 A2993 RMK A01 T02590234  RH  086%=      5-min Rain = 0
KCA1 140519Z 05013KT 26/23 A2993 RMK A01 T02580234  RH  086%=      5-min Rain = 0
KCA1 140520Z 04013KT 26/23 A2993 RMK A01 T02580234  RH  086%=      5-min Rain = 0
KCA1 140521Z 05013KT 26/23 A2993 RMK A01 T02580234  RH  086%=      5-min Rain = 0
KCA1 140522Z 05012KT 26/23 A2993 RMK A01 T02580234  RH  086%=      5-min Rain = 0
KCA1 140523Z 05013KT 26/23 A2993 RMK A01 T02580234  RH  087%=      5-min Rain = 0
KCA1 140524Z 05012KT 26/23 A2993 RMK A01 T02580234  RH  087%=      5-min Rain = 0
KCA1 140525Z 05012KT 26/23 A2993 RMK A01 T02580234  RH  087%=      5-min Rain = 0
KCA1 140526Z 05012KT 26/23 A2993 RMK A01 T02580234  RH  087%=      5-min Rain = 0
KCA1 140527Z 04011KT 26/23 A2993 RMK A01 T02570234  RH  087%=      5-min Rain = 0
KCA1 140528Z 05010KT 26/23 A2993 RMK A01 T02570234  RH  087%=      5-min Rain = 0
KCA1 140529Z 05011KT 26/23 A2993 RMK A01 T02560234  RH  087%=      5-min Rain = 0
KCA1 140530Z 05011KT 26/23 A2993 RMK A01 T02560234  RH  088%=      5-min Rain = 0
KCA1 140531Z 05010KT 26/23 A2993 RMK A01 T02550234  RH  088%=      5-min Rain = 0
KCA1 140532Z 05010KT 26/23 A2993 RMK A01 T02550234  RH  088%=      5-min Rain = 0
KCA1 140533Z 05011KT 26/23 A2993 RMK A01 T02550234  RH  088%=      5-min Rain = 0
KCA1 140534Z 05012KT 26/23 A2993 RMK A01 T02550234  RH  088%=      5-min Rain = 0
KCA1 140535Z 05012KT 26/23 A2993 RMK A01 T02550234  RH  088%=      5-min Rain = 0
KCA1 140536Z 05011KT 26/23 A2993 RMK A01 T02550234  RH  088%=      5-min Rain = 0
KCA1 140537Z 05012KT 26/23 A2993 RMK A01 T02550234  RH  088%=      5-min Rain = 0
KCA1 140538Z 05010KT 26/23 A2993 RMK A01 T02550234  RH  088%=      5-min Rain = 0
KCA1 140539Z 05011KT 26/23 A2993 RMK A01 T02550234  RH  088%=      5-min Rain = 0
KCA1 140540Z 06010KT 26/23 A2993 RMK A01 T02550234  RH  088%=      5-min Rain = 0
KCA1 140541Z 06009KT 25/23 A2992 RMK A01 T02540234  RH  089%=      5-min Rain = 0
KCA1 140542Z 06009KT 25/23 A2992 RMK A01 T02540234  RH  089%=      5-min Rain = 0
KCA1 140543Z 06009KT 25/23 A2992 RMK A01 T02530234  RH  089%=      5-min Rain = 0
KCA1 140544Z 06010KT 25/23 A2992 RMK A01 T02530234  RH  089%=      5-min Rain = 0
KCA1 140545Z 05010KT 25/23 A2992 RMK A01 T02530234  RH  089%=      5-min Rain = 0
KCA1 140546Z 05010KT 25/23 A2993 RMK A01 T02530234  RH  089%=      5-min Rain = 0
KCA1 140547Z 05013KT 25/23 A2993 RMK A01 T02530234  RH  089%=      5-min Rain = 0
KCA1 140548Z 05014KT 26/23 A2993 RMK A01 T02550234  RH  089%=      5-min Rain = 0
KCA1 140549Z 05012KT 26/24 A2993 RMK A01 T02560235  RH  088%=      5-min Rain = 0
KCA1 140550Z 05012KT 26/24 A2993 RMK A01 T02570235  RH  088%=      5-min Rain = 0
KCA1 140551Z 05012KT 26/24 A2993 RMK A01 T02570235  RH  088%=      5-min Rain = 0
KCA1 140552Z 05010KT 26/24 A2993 RMK A01 T02570235  RH  088%=      5-min Rain = 0
KCA1 140553Z 05009KT 26/24 A2993 RMK A01 T02560235  RH  088%=      5-min Rain = 0
KCA1 140554Z 05011KT 26/23 A2993 RMK A01 T02550234  RH  088%=      5-min Rain = 0
KCA1 140555Z 06009KT 25/23 A2993 RMK A01 T02540234  RH  089%=      5-min Rain = 0
KCA1 140556Z 06009KT 25/23 A2993 RMK A01 T02540234  RH  089%=      5-min Rain = 0
KCA1 140557Z 05010KT 25/23 A2993 RMK A01 T02530234  RH  089%=      5-min Rain = 0
KCA1 140558Z 05011KT 25/23 A2993 RMK A01 T02520234  RH  090%=      5-min Rain = 0
KCA1 140559Z 05008KT 25/23 A2993 RMK A01 T02520234  RH  090%=      5-min Rain = 0
KCA1 140600Z 05010KT 25/23 A2993 RMK A01 T02520234  RH  090%=      5-min Rain = 0
KCA1 140601Z 05009KT 25/23 A2993 RMK A01 T02510234  RH  090%=      5-min Rain = 0
KCA1 140602Z 05011KT 25/23 A2993 RMK A01 T02510234  RH  090%=      5-min Rain = 0
KCA1 140603Z 05009KT 25/23 A2993 RMK A01 T02500234  RH  091%=      5-min Rain = 0
KCA1 140604Z 05009KT 25/23 A2993 RMK A01 T02500234  RH  091%=      5-min Rain = 0
KCA1 140605Z 05008KT 25/23 A2993 RMK A01 T02490234  RH  091%=      5-min Rain = 0
KCA1 140606Z 06009KT 25/23 A2993 RMK A01 T02490234  RH  091%=      5-min Rain = 0
KCA1 140607Z 06008KT 25/23 A2993 RMK A01 T02480234  RH  092%=      5-min Rain = 0
KCA1 140608Z 06009KT 25/23 A2993 RMK A01 T02480234  RH  092%=      5-min Rain = 0
KCA1 140609Z 06009KT 25/23 A2993 RMK A01 T02480234  RH  092%=      5-min Rain = 0
KCA1 140610Z 06008KT 25/23 A2993 RMK A01 T02480234  RH  092%=      5-min Rain = 0
KCA1 140611Z 06008KT 25/23 A2993 RMK A01 T02480234  RH  092%=      5-min Rain = 0
KCA1 140612Z 06009KT 25/23 A2993 RMK A01 T02480234  RH  092%=      5-min Rain = 0
KCA1 140613Z 06008KT 25/23 A2993 RMK A01 T02480234  RH  092%=      5-min Rain = 0
KCA1 140614Z 06008KT 25/23 A2993 RMK A01 T02470234  RH  092%=      5-min Rain = 0
KCA1 140615Z 06008KT 25/23 A2993 RMK A01 T02470234  RH  092%=      5-min Rain = 0
KCA1 140616Z 06008KT 25/23 A2993 RMK A01 T02470234  RH  093%=      5-min Rain = 0
KCA1 140617Z 06009KT 25/23 A2993 RMK A01 T02460234  RH  093%=      5-min Rain = 0
KCA1 140618Z 06008KT 25/23 A2993 RMK A01 T02460234  RH  093%=      5-min Rain = 0
KCA1 140619Z 06009KT 25/23 A2993 RMK A01 T02460233  RH  093%=      5-min Rain = 0
KCA1 140620Z 06009KT 25/23 A2993 RMK A01 T02460234  RH  093%=      5-min Rain = 0
KCA1 140621Z 05009KT 25/23 A2993 RMK A01 T02450233  RH  093%=      5-min Rain = 0
KCA1 140622Z 05009KT 25/23 A2993 RMK A01 T02450234  RH  093%=      5-min Rain = 0
KCA1 140623Z 05009KT 24/23 A2993 RMK A01 T02440233  RH  094%=      5-min Rain = 0
KCA1 140624Z 06010KT 24/23 A2993 RMK A01 T02440233  RH  094%=      5-min Rain = 0
KCA1 140625Z 05010KT 24/23 A2993 RMK A01 T02440234  RH  094%=      5-min Rain = 0
KCA1 140626Z 05010KT 24/23 A2993 RMK A01 T02440234  RH  094%=      5-min Rain = 0
KCA1 140627Z 05009KT 24/23 A2993 RMK A01 T02440233  RH  094%=      5-min Rain = 0
KCA1 140628Z 05009KT 24/23 A2993 RMK A01 T02430233  RH  094%=      5-min Rain = 0
KCA1 140629Z 05009KT 24/23 A2993 RMK A01 T02430233  RH  094%=      5-min Rain = 0
KCA1 140630Z 04009KT 24/23 A2993 RMK A01 T02430233  RH  094%=      5-min Rain = 0
KCA1 140631Z 05010KT 24/23 A2993 RMK A01 T02420233  RH  095%=      5-min Rain = 0
KCA1 140632Z 05009KT 24/23 A2993 RMK A01 T02420233  RH  095%=      5-min Rain = 0
KCA1 140633Z 05009KT 24/23 A2993 RMK A01 T02420233  RH  095%=      5-min Rain = 0
KCA1 140634Z 05008KT 24/23 A2993 RMK A01 T02420233  RH  095%=      5-min Rain = 0
KCA1 140635Z 05008KT 24/23 A2993 RMK A01 T02410233  RH  095%=      5-min Rain = 0
KCA1 140636Z 05008KT 24/23 A2993 RMK A01 T02420233  RH  095%=      5-min Rain = 0
KCA1 140637Z 05008KT 24/23 A2992 RMK A01 T02410233  RH  095%=      5-min Rain = 0
KCA1 140638Z 05008KT 24/23 A2992 RMK A01 T02410233  RH  095%=      5-min Rain = 0
KCA1 140639Z 05008KT 24/23 A2992 RMK A01 T02410233  RH  095%=      5-min Rain = 0
KCA1 140640Z 06008KT 24/23 A2992 RMK A01 T02400233  RH  096%=      5-min Rain = 0
KCA1 140641Z 06008KT 24/23 A2992 RMK A01 T02400233  RH  096%=      5-min Rain = 0
KCA1 140642Z 06008KT 24/23 A2992 RMK A01 T02400233  RH  096%=      5-min Rain = 0
KCA1 140643Z 06008KT 24/23 A2992 RMK A01 T02400233  RH  096%=      5-min Rain = 0
KCA1 140644Z 06008KT 24/23 A2992 RMK A01 T02400233  RH  096%=      5-min Rain = 0
KCA1 140645Z 07007KT 24/23 A2992 RMK A01 T02400233  RH  096%=      5-min Rain = 0
KCA1 140646Z 06007KT 24/23 A2992 RMK A01 T02400233  RH  096%=      5-min Rain = 0
KCA1 140647Z 06007KT 24/23 A2992 RMK A01 T02400233  RH  096%=      5-min Rain = 0
KCA1 140648Z 06008KT 24/23 A2992 RMK A01 T02390233  RH  096%=      5-min Rain = 0
KCA1 140649Z 06007KT 24/23 A2992 RMK A01 T02390232  RH  096%=      5-min Rain = 0
KCA1 140650Z 06007KT 24/23 A2992 RMK A01 T02390233  RH  096%=      5-min Rain = 0
KCA1 140651Z 07006KT 24/23 A2992 RMK A01 T02390233  RH  096%=      5-min Rain = 0
KCA1 140652Z 07005KT 24/23 A2992 RMK A01 T02380232  RH  096%=      5-min Rain = 0
KCA1 140653Z 07005KT 24/23 A2992 RMK A01 T02380233  RH  097%=      5-min Rain = 0
KCA1 140654Z 07005KT 24/23 A2992 RMK A01 T02370232  RH  097%=      5-min Rain = 0
KCA1 140655Z 08004KT 24/23 A2992 RMK A01 T02380233  RH  097%=      5-min Rain = 0
KCA1 140656Z 08004KT 24/23 A2992 RMK A01 T02370232  RH  097%=      5-min Rain = 0
KCA1 140657Z 09003KT 24/23 A2992 RMK A01 T02370232  RH  097%=      5-min Rain = 0
KCA1 140658Z 10002KT 24/23 A2992 RMK A01 T02370232  RH  097%=      5-min Rain = 0
KCA1 140659Z 11002KT 24/23 A2992 RMK A01 T02370232  RH  097%=      5-min Rain = 0
KCA1 140700Z 12002KT 24/23 A2992 RMK A01 T02370232  RH  097%=      5-min Rain = 0
KCA1 140701Z 13001KT 24/23 A2992 RMK A01 T02360232  RH  097%=      5-min Rain = 0
KCA1 140702Z 13001KT 24/23 A2992 RMK A01 T02360232  RH  098%=      5-min Rain = 0
KCA1 140703Z 13002KT 24/23 A2992 RMK A01 T02350231  RH  098%=      5-min Rain = 0
KCA1 140704Z 10002KT 24/23 A2992 RMK A01 T02350231  RH  098%=      5-min Rain = 0
KCA1 140705Z 11001KT 23/23 A2992 RMK A01 T02340232  RH  098%=      5-min Rain = 0
KCA1 140706Z 10001KT 23/23 A2992 RMK A01 T02340232  RH  098%=      5-min Rain = 0
KCA1 140707Z 10002KT 23/23 A2992 RMK A01 T02340231  RH  099%=      5-min Rain = 0
KCA1 140708Z 11001KT 23/23 A2992 RMK A01 T02340232  RH  099%=      5-min Rain = 0
KCA1 140709Z 10000KT 23/23 A2992 RMK A01 T02340233  RH  099%=      5-min Rain = 0
KCA1 140710Z 10000KT 23/23 A2992 RMK A01 T02340232  RH  099%=      5-min Rain = 0
KCA1 140711Z 09001KT 23/23 A2992 RMK A01 T02330232  RH  099%=      5-min Rain = 0
KCA1 140712Z 10000KT 23/23 A2992 RMK A01 T02330232  RH  099%=      5-min Rain = 0
KCA1 140713Z 08001KT 23/23 A2992 RMK A01 T02330232  RH  099%=      5-min Rain = 0
KCA1 140714Z 08000KT 23/23 A2992 RMK A01 T02330232  RH  099%=      5-min Rain = 0
KCA1 140715Z 00000KT 23/23 A2992 RMK A01 T02330232  RH  100%=      5-min Rain = 0
KCA1 140716Z 00000KT 23/23 A2992 RMK A01 T02320232  RH  100%=      5-min Rain = 0
KCA1 140717Z 00000KT 23/23 A2992 RMK A01 T02320232  RH  100%=      5-min Rain = 0
KCA1 140718Z 00001KT 23/23 A2992 RMK A01 T02320232  RH  100%=      5-min Rain = 0
KCA1 140719Z 35001KT 23/23 A2992 RMK A01 T02320232  RH  100%=      5-min Rain = 0
KCA1 140720Z 35001KT 23/23 A2992 RMK A01 T02320232  RH  100%=      5-min Rain = 0
KCA1 140721Z 00002KT 23/23 A2992 RMK A01 T02320232  RH  100%=      5-min Rain = 0
KCA1 140722Z 01002KT 23/23 A2992 RMK A01 T02310230  RH  100%=      5-min Rain = 0
KCA1 140723Z 36002KT 23/23 A2992 RMK A01 T02300228  RH  099%=      5-min Rain = 0
KCA1 140724Z 35002KT 23/23 A2992 RMK A01 T02300229  RH  099%=      5-min Rain = 0
KCA1 140725Z 36002KT 23/23 A2992 RMK A01 T02290229  RH  100%=      5-min Rain = 0
KCA1 140726Z 34003KT 23/23 A2992 RMK A01 T02290228  RH  100%=      5-min Rain = 0
KCA1 140727Z 34003KT 23/23 A2992 RMK A01 T02280228  RH  100%=      5-min Rain = 0
KCA1 140728Z 34004KT 23/23 A2992 RMK A01 T02270227  RH  100%=      5-min Rain = 0
KCA1 140729Z 34004KT 23/22 A2992 RMK A01 T02260224  RH  099%=      5-min Rain = 0
KCA1 140730Z 34004KT 22/22 A2992 RMK A01 T02240224  RH  100%=      5-min Rain = 0
KCA1 140731Z 34004KT 22/22 A2992 RMK A01 T02240224  RH  100%=      5-min Rain = 0
KCA1 140732Z 34004KT 22/22 A2992 RMK A01 T02230223  RH  100%=      5-min Rain = 0
KCA1 140733Z 35004KT 22/22 A2992 RMK A01 T02220222  RH  100%=      5-min Rain = 0
KCA1 140734Z 36005KT 22/22 A2992 RMK A01 T02220222  RH  100%=      5-min Rain = 0
KCA1 140735Z 00005KT 22/22 A2992 RMK A01 T02220223  RH  100%=      5-min Rain = 0
KCA1 140736Z 01005KT 22/22 A2992 RMK A01 T02230223  RH  100%=      5-min Rain = 0
KCA1 140737Z 01006KT 22/22 A2991 RMK A01 T02220223  RH  100%=      5-min Rain = 0
KCA1 140738Z 01006KT 22/22 A2991 RMK A01 T02220223  RH  100%=      5-min Rain = 0
KCA1 140739Z 01006KT 22/22 A2991 RMK A01 T02220223  RH  100%=      5-min Rain = 0
KCA1 140740Z 02007KT 22/22 A2991 RMK A01 T02230223  RH  100%=      5-min Rain = 0
KCA1 140741Z 02007KT 22/22 A2991 RMK A01 T02230223  RH  100%=      5-min Rain = 0
KCA1 140742Z 02007KT 22/22 A2991 RMK A01 T02230224  RH  100%=      5-min Rain = 0
KCA1 140743Z 02007KT 22/22 A2991 RMK A01 T02230224  RH  100%=      5-min Rain = 0
KCA1 140744Z 02008KT 22/22 A2991 RMK A01 T02240224  RH  100%=      5-min Rain = 0
KCA1 140745Z 02008KT 22/22 A2991 RMK A01 T02230223  RH  100%=      5-min Rain = 0
KCA1 140746Z 02007KT 22/22 A2991 RMK A01 T02230223  RH  100%=      5-min Rain = 0
KCA1 140747Z 01008KT 22/22 A2991 RMK A01 T02230223  RH  100%=      5-min Rain = 0
KCA1 140748Z 01007KT 22/22 A2991 RMK A01 T02230223  RH  100%=      5-min Rain = 0
KCA1 140749Z 01007KT 22/22 A2991 RMK A01 T02220222  RH  100%=      5-min Rain = 0
KCA1 140750Z 02007KT 22/22 A2991 RMK A01 T02220223  RH  100%=      5-min Rain = 0
KCA1 140751Z 02007KT 22/22 A2991 RMK A01 T02220223  RH  100%=      5-min Rain = 0
KCA1 140752Z 02006KT 22/22 A2991 RMK A01 T02220223  RH  100%=      5-min Rain = 0
KCA1 140753Z 02007KT 22/22 A2991 RMK A01 T02230223  RH  100%=      5-min Rain = 0
KCA1 140754Z 02007KT 22/22 A2991 RMK A01 T02230223  RH  100%=      5-min Rain = 0
KCA1 140755Z 01007KT 22/22 A2991 RMK A01 T02230223  RH  100%=      5-min Rain = 0
KCA1 140756Z 01007KT 22/22 A2991 RMK A01 T02230223  RH  100%=      5-min Rain = 0
KCA1 140757Z 02007KT 22/22 A2991 RMK A01 T02220223  RH  100%=      5-min Rain = 0
KCA1 140758Z 02007KT 22/22 A2991 RMK A01 T02220223  RH  100%=      5-min Rain = 0
KCA1 140759Z 01007KT 22/22 A2991 RMK A01 T02230223  RH  100%=      5-min Rain = 0
KCA1 140800Z 02007KT 22/22 A2991 RMK A01 T02230223  RH  100%=      5-min Rain = 0
KCA1 140801Z 02007KT 22/22 A2991 RMK A01 T02220223  RH  100%=      5-min Rain = 0
KCA1 140802Z 02007KT 22/22 A2991 RMK A01 T02220222  RH  100%=      5-min Rain = 0
KCA1 140803Z 02007KT 22/22 A2991 RMK A01 T02220222  RH  100%=      5-min Rain = 0
KCA1 140804Z 02007KT 22/22 A2991 RMK A01 T02220222  RH  100%=      5-min Rain = 0
KCA1 140805Z 02007KT 22/22 A2991 RMK A01 T02220222  RH  100%=      5-min Rain = 0
KCA1 140806Z 02007KT 22/22 A2991 RMK A01 T02220222  RH  100%=      5-min Rain = 0
KCA1 140807Z 02007KT 22/22 A2991 RMK A01 T02210222  RH  100%=      5-min Rain = 0
KCA1 140808Z 02007KT 22/22 A2991 RMK A01 T02210222  RH  100%=      5-min Rain = 0
KCA1 140809Z 02007KT 22/22 A2991 RMK A01 T02210222  RH  100%=      5-min Rain = 0
KCA1 140810Z 02007KT 22/22 A2991 RMK A01 T02210221  RH  100%=      5-min Rain = 0
KCA1 140811Z 02007KT 22/22 A2991 RMK A01 T02210221  RH  100%=      5-min Rain = 0
KCA1 140812Z 02007KT 22/22 A2991 RMK A01 T02210221  RH  100%=      5-min Rain = 0
KCA1 140813Z 01007KT 22/22 A2991 RMK A01 T02210221  RH  100%=      5-min Rain = 0
KCA1 140814Z 01007KT 22/22 A2991 RMK A01 T02200221  RH  100%=      5-min Rain = 0
KCA1 140815Z 01007KT 22/22 A2991 RMK A01 T02200220  RH  100%=      5-min Rain = 0
KCA1 140816Z 02007KT 22/22 A2991 RMK A01 T02200220  RH  100%=      5-min Rain = 0
KCA1 140817Z 01007KT 22/22 A2991 RMK A01 T02200220  RH  100%=      5-min Rain = 0
KCA1 140818Z 01008KT 22/22 A2991 RMK A01 T02200220  RH  100%=      5-min Rain = 0
KCA1 140819Z 02007KT 22/22 A2991 RMK A01 T02200220  RH  100%=      5-min Rain = 0
KCA1 140820Z 02007KT 22/22 A2991 RMK A01 T02200220  RH  100%=      5-min Rain = 0
KCA1 140821Z 01008KT 22/22 A2991 RMK A01 T02200220  RH  100%=      5-min Rain = 0
KCA1 140822Z 02008KT 22/22 A2991 RMK A01 T02200220  RH  100%=      5-min Rain = 0
KCA1 140823Z 02008KT 22/22 A2991 RMK A01 T02190219  RH  100%=      5-min Rain = 0
KCA1 140824Z 02008KT 22/22 A2991 RMK A01 T02190219  RH  100%=      5-min Rain = 0
KCA1 140825Z 02008KT 22/22 A2991 RMK A01 T02190219  RH  100%=      5-min Rain = 0
KCA1 140826Z 02008KT 22/22 A2991 RMK A01 T02190219  RH  100%=      5-min Rain = 0
KCA1 140827Z 02008KT 22/22 A2991 RMK A01 T02190220  RH  100%=      5-min Rain = 0
KCA1 140828Z 02008KT 22/22 A2991 RMK A01 T02190220  RH  100%=      5-min Rain = 0
KCA1 140829Z 02008KT 22/22 A299 RMK A01 T02190219  RH  100%=      5-min Rain = 0
KCA1 140830Z 02008KT 22/22 A299 RMK A01 T02190219  RH  100%=      5-min Rain = 0
KCA1 140831Z 02007KT 22/22 A299 RMK A01 T02190219  RH  100%=      5-min Rain = 0
KCA1 140832Z 02007KT 22/22 A299 RMK A01 T02190220  RH  100%=      5-min Rain = 0
KCA1 140833Z 02007KT 22/22 A299 RMK A01 T02190219  RH  100%=      5-min Rain = 0
KCA1 140834Z 02007KT 22/22 A299 RMK A01 T02190220  RH  100%=      5-min Rain = 0
KCA1 140835Z 02008KT 22/22 A299 RMK A01 T02190220  RH  100%=      5-min Rain = 0
KCA1 140836Z 02008KT 22/22 A299 RMK A01 T02190220  RH  100%=      5-min Rain = 0
KCA1 140837Z 02008KT 22/22 A299 RMK A01 T02190219  RH  100%=      5-min Rain = 0
KCA1 140838Z 02008KT 22/22 A299 RMK A01 T02190219  RH  100%=      5-min Rain = 0
KCA1 140839Z 02009KT 22/22 A299 RMK A01 T02190219  RH  100%=      5-min Rain = 0
KCA1 140840Z 02009KT 22/22 A299 RMK A01 T02190219  RH  100%=      5-min Rain = 0
KCA1 140841Z 02009KT 22/22 A299 RMK A01 T02190219  RH  100%=      5-min Rain = 0
KCA1 140842Z 02009KT 22/22 A299 RMK A01 T02190219  RH  100%=      5-min Rain = 0
KCA1 140843Z 02009KT 22/22 A299 RMK A01 T02190219  RH  100%=      5-min Rain = 0
KCA1 140844Z 02009KT 22/22 A299 RMK A01 T02190219  RH  100%=      5-min Rain = 0
KCA1 140845Z 02009KT 22/22 A299 RMK A01 T02190219  RH  100%=      5-min Rain = 0
KCA1 140846Z 03009KT 22/22 A299 RMK A01 T02190220  RH  100%=      5-min Rain = 0
KCA1 140847Z 02009KT 22/22 A299 RMK A01 T02200220  RH  100%=      5-min Rain = 0
KCA1 140848Z 02009KT 22/22 A299 RMK A01 T02200220  RH  100%=      5-min Rain = 0
KCA1 140849Z 02009KT 22/22 A299 RMK A01 T02200220  RH  100%=      5-min Rain = 0
KCA1 140850Z 03010KT 22/22 A299 RMK A01 T02200220  RH  100%=      5-min Rain = 0
KCA1 140851Z 03009KT 22/22 A299 RMK A01 T02200220  RH  100%=      5-min Rain = 0
KCA1 140852Z 03009KT 22/22 A299 RMK A01 T02200220  RH  100%=      5-min Rain = 0
KCA1 140853Z 03009KT 22/22 A299 RMK A01 T02200220  RH  100%=      5-min Rain = 0
KCA1 140854Z 03009KT 22/22 A299 RMK A01 T02200220  RH  100%=      5-min Rain = 0
KCA1 140855Z 03009KT 22/22 A299 RMK A01 T02200220  RH  100%=      5-min Rain = 0
KCA1 140856Z 03009KT 22/22 A299 RMK A01 T02200220  RH  100%=      5-min Rain = 0
KCA1 140857Z 03009KT 22/22 A299 RMK A01 T02200220  RH  100%=      5-min Rain = 0
KCA1 140858Z 02009KT 22/22 A299 RMK A01 T02200220  RH  100%=      5-min Rain = 0
KCA1 140859Z 03009KT 22/22 A299 RMK A01 T02200220  RH  100%=      5-min Rain = 0
KCA1 140900Z 02009KT 22/22 A299 RMK A01 T02200221  RH  100%=      5-min Rain = 0
KCA1 140901Z 02009KT 22/22 A299 RMK A01 T02200220  RH  100%=      5-min Rain = 0
KCA1 140902Z 03008KT 22/22 A299 RMK A01 T02200220  RH  100%=      5-min Rain = 0
KCA1 140903Z 03009KT 22/22 A299 RMK A01 T02200220  RH  100%=      5-min Rain = 0
KCA1 140904Z 03009KT 22/22 A299 RMK A01 T02200220  RH  100%=      5-min Rain = 0
KCA1 140905Z 03008KT 22/22 A299 RMK A01 T02200220  RH  100%=      5-min Rain = 0
KCA1 140906Z 03009KT 22/22 A299 RMK A01 T02200220  RH  100%=      5-min Rain = 0
KCA1 140907Z 03009KT 22/22 A299 RMK A01 T02200220  RH  100%=      5-min Rain = 0
KCA1 140908Z 03009KT 22/22 A299 RMK A01 T02190219  RH  100%=      5-min Rain = 0
KCA1 140909Z 03009KT 22/22 A299 RMK A01 T02190219  RH  100%=      5-min Rain = 0
KCA1 140910Z 03010KT 22/22 A299 RMK A01 T02190219  RH  100%=      5-min Rain = 0
KCA1 140911Z 03009KT 22/22 A299 RMK A01 T02190219  RH  100%=      5-min Rain = 0
KCA1 140912Z 02009KT 22/22 A299 RMK A01 T02190219  RH  100%=      5-min Rain = 0
KCA1 140913Z 03008KT 22/22 A299 RMK A01 T02180218  RH  100%=      5-min Rain = 0
KCA1 140914Z 03009KT 22/22 A299 RMK A01 T02180219  RH  100%=      5-min Rain = 0
KCA1 140915Z 03008KT 22/22 A299 RMK A01 T02180218  RH  100%=      5-min Rain = 0
KCA1 140916Z 03008KT 22/22 A299 RMK A01 T02180218  RH  100%=      5-min Rain = 0
KCA1 140917Z 02008KT 22/22 A299 RMK A01 T02180218  RH  100%=      5-min Rain = 0
KCA1 140918Z 02007KT 22/22 A299 RMK A01 T02180218  RH  100%=      5-min Rain = 0
KCA1 140919Z 02008KT 22/22 A299 RMK A01 T02170218  RH  100%=      5-min Rain = 0
KCA1 140920Z 02007KT 22/22 A299 RMK A01 T02170218  RH  100%=      5-min Rain = 0
KCA1 140921Z 02007KT 22/22 A299 RMK A01 T02170217  RH  100%=      5-min Rain = 0
KCA1 140922Z 02008KT 22/22 A299 RMK A01 T02180218  RH  100%=      5-min Rain = 0
KCA1 140923Z 03008KT 22/22 A299 RMK A01 T02180218  RH  100%=      5-min Rain = 0
KCA1 140924Z 02007KT 22/22 A299 RMK A01 T02170218  RH  100%=      5-min Rain = 0
KCA1 140925Z 02007KT 22/22 A299 RMK A01 T02170217  RH  100%=      5-min Rain = 0
KCA1 140926Z 02007KT 22/22 A299 RMK A01 T02170217  RH  100%=      5-min Rain = 0
KCA1 140927Z 02007KT 22/22 A299 RMK A01 T02170217  RH  100%=      5-min Rain = 0
KCA1 140928Z 02006KT 22/22 A299 RMK A01 T02170217  RH  100%=      5-min Rain = 0
KCA1 140929Z 02006KT 22/22 A299 RMK A01 T02170217  RH  100%=      5-min Rain = 0
KCA1 140930Z 02006KT 22/22 A299 RMK A01 T02160217  RH  100%=      5-min Rain = 0
KCA1 140931Z 02006KT 22/22 A299 RMK A01 T02160217  RH  100%=      5-min Rain = 0
KCA1 140932Z 02006KT 22/22 A299 RMK A01 T02160216  RH  100%=      5-min Rain = 0
KCA1 140933Z 02006KT 22/22 A299 RMK A01 T02160216  RH  100%=      5-min Rain = 0
KCA1 140934Z 02006KT 22/22 A299 RMK A01 T02160216  RH  100%=      5-min Rain = 0
KCA1 140935Z 02006KT 22/22 A299 RMK A01 T02150216  RH  100%=      5-min Rain = 0
KCA1 140936Z 02006KT 22/22 A299 RMK A01 T02150215  RH  100%=      5-min Rain = 0
KCA1 140937Z 02007KT 22/22 A299 RMK A01 T02150215  RH  100%=      5-min Rain = 0
KCA1 140938Z 02008KT 22/22 A299 RMK A01 T02150215  RH  100%=      5-min Rain = 0
KCA1 140939Z 02008KT 22/22 A299 RMK A01 T02150215  RH  100%=      5-min Rain = 0
KCA1 140940Z 02008KT 22/22 A299 RMK A01 T02150215  RH  100%=      5-min Rain = 0
KCA1 140941Z 02008KT 22/22 A299 RMK A01 T02150215  RH  100%=      5-min Rain = 0
KCA1 140942Z 02008KT 22/22 A299 RMK A01 T02150215  RH  100%=      5-min Rain = 0
KCA1 140943Z 02008KT 22/22 A299 RMK A01 T02150215  RH  100%=      5-min Rain = 0
KCA1 140944Z 02008KT 22/22 A299 RMK A01 T02150215  RH  100%=      5-min Rain = 0
KCA1 140945Z 02008KT 21/22 A299 RMK A01 T02140215  RH  100%=      5-min Rain = 0
KCA1 140946Z 02007KT 22/22 A299 RMK A01 T02150215  RH  100%=      5-min Rain = 0
KCA1 140947Z 02007KT 22/22 A299 RMK A01 T02150215  RH  100%=      5-min Rain = 0
KCA1 140948Z 02006KT 22/22 A299 RMK A01 T02150215  RH  100%=      5-min Rain = 0
KCA1 140949Z 01007KT 22/22 A299 RMK A01 T02150215  RH  100%=      5-min Rain = 0
KCA1 140950Z 02006KT 22/22 A299 RMK A01 T02150215  RH  100%=      5-min Rain = 0
KCA1 140951Z 02006KT 21/21 A299 RMK A01 T02140214  RH  100%=      5-min Rain = 0
KCA1 140952Z 02006KT 21/21 A299 RMK A01 T02140214  RH  100%=      5-min Rain = 0
KCA1 140953Z 01006KT 21/21 A299 RMK A01 T02140214  RH  100%=      5-min Rain = 0
KCA1 140954Z 02006KT 21/21 A299 RMK A01 T02140214  RH  100%=      5-min Rain = 0
KCA1 140955Z 01006KT 21/21 A299 RMK A01 T02140214  RH  100%=      5-min Rain = 0
KCA1 140956Z 01006KT 21/21 A299 RMK A01 T02140214  RH  100%=      5-min Rain = 0
KCA1 140957Z 01006KT 21/21 A299 RMK A01 T02140214  RH  100%=      5-min Rain = 0
KCA1 140958Z 01006KT 21/21 A299 RMK A01 T02140214  RH  100%=      5-min Rain = 0
KCA1 140959Z 02006KT 21/21 A299 RMK A01 T02130213  RH  100%=      5-min Rain = 0
KCA1 141000Z 02006KT 21/21 A299 RMK A01 T02140214  RH  100%=      5-min Rain = 0
KCA1 141001Z 02005KT 21/21 A299 RMK A01 T02130214  RH  100%=      5-min Rain = 0
KCA1 141002Z 01005KT 21/21 A299 RMK A01 T02130213  RH  100%=      5-min Rain = 0
KCA1 141003Z 01005KT 21/21 A299 RMK A01 T02130213  RH  100%=      5-min Rain = 0
KCA1 141004Z 02004KT 21/21 A299 RMK A01 T02120213  RH  100%=      5-min Rain = 0
KCA1 141005Z 01004KT 21/21 A299 RMK A01 T02120213  RH  100%=      5-min Rain = 0
KCA1 141006Z 01003KT 21/21 A299 RMK A01 T02120212  RH  100%=      5-min Rain = 0
KCA1 141007Z 01003KT 21/21 A299 RMK A01 T02120212  RH  100%=      5-min Rain = 0
KCA1 141008Z 00004KT 21/21 A299 RMK A01 T02120212  RH  100%=      5-min Rain = 0
KCA1 141009Z 36004KT 21/21 A299 RMK A01 T02120212  RH  100%=      5-min Rain = 0
KCA1 141010Z 00004KT 21/21 A299 RMK A01 T02110212  RH  100%=      5-min Rain = 0
KCA1 141011Z 00003KT 21/21 A299 RMK A01 T02110212  RH  100%=      5-min Rain = 0
KCA1 141012Z 00004KT 21/21 A299 RMK A01 T02120212  RH  100%=      5-min Rain = 0
KCA1 141013Z 00004KT 21/21 A299 RMK A01 T02110212  RH  100%=      5-min Rain = 0
KCA1 141014Z 00004KT 21/21 A299 RMK A01 T02120212  RH  100%=      5-min Rain = 0
KCA1 141015Z 00004KT 21/21 A299 RMK A01 T02110212  RH  100%=      5-min Rain = 0
KCA1 141016Z 36004KT 21/21 A299 RMK A01 T02110211  RH  100%=      5-min Rain = 0
KCA1 141017Z 01004KT 21/21 A299 RMK A01 T02110212  RH  100%=      5-min Rain = 0
KCA1 141018Z 01004KT 21/21 A299 RMK A01 T02110212  RH  100%=      5-min Rain = 0
KCA1 141019Z 01004KT 21/21 A299 RMK A01 T02110212  RH  100%=      5-min Rain = 0
KCA1 141020Z 01004KT 21/21 A299 RMK A01 T02120212  RH  100%=      5-min Rain = 0
KCA1 141021Z 01004KT 21/21 A299 RMK A01 T02120212  RH  100%=      5-min Rain = 0
KCA1 141022Z 01004KT 21/21 A299 RMK A01 T02120212  RH  100%=      5-min Rain = 0
KCA1 141023Z 01005KT 21/21 A299 RMK A01 T02120212  RH  100%=      5-min Rain = 0
KCA1 141024Z 01005KT 21/21 A299 RMK A01 T02120212  RH  100%=      5-min Rain = 0
KCA1 141025Z 01006KT 21/21 A299 RMK A01 T02120213  RH  100%=      5-min Rain = 0
KCA1 141026Z 01005KT 21/21 A299 RMK A01 T02130213  RH  100%=      5-min Rain = 0
KCA1 141027Z 01005KT 21/21 A299 RMK A01 T02130213  RH  100%=      5-min Rain = 0
KCA1 141028Z 01005KT 21/21 A299 RMK A01 T02130213  RH  100%=      5-min Rain = 0
KCA1 141029Z 00005KT 21/21 A299 RMK A01 T02130214  RH  100%=      5-min Rain = 0
KCA1 141030Z 01005KT 21/21 A299 RMK A01 T02140214  RH  100%=      5-min Rain = 0
KCA1 141031Z 01006KT 21/21 A299 RMK A01 T02140214  RH  100%=      5-min Rain = 0
KCA1 141032Z 01005KT 21/21 A299 RMK A01 T02140214  RH  100%=      5-min Rain = 0
KCA1 141033Z 01004KT 21/22 A299 RMK A01 T02140215  RH  100%=      5-min Rain = 0
KCA1 141034Z 01005KT 22/22 A299 RMK A01 T02150215  RH  100%=      5-min Rain = 0
KCA1 141035Z 01004KT 22/22 A299 RMK A01 T02150215  RH  100%=      5-min Rain = 0
KCA1 141036Z 00003KT 22/22 A299 RMK A01 T02150215  RH  100%=      5-min Rain = 0
KCA1 141037Z 36003KT 22/22 A299 RMK A01 T02160216  RH  100%=      5-min Rain = 0
KCA1 141038Z 34002KT 22/22 A2991 RMK A01 T02160216  RH  100%=      5-min Rain = 0
KCA1 141039Z 33002KT 22/22 A2991 RMK A01 T02160216  RH  100%=      5-min Rain = 0
KCA1 141040Z 31002KT 22/22 A2991 RMK A01 T02160216  RH  100%=      5-min Rain = 0
KCA1 141041Z 28002KT 22/22 A2991 RMK A01 T02160216  RH  100%=      5-min Rain = 0
KCA1 141042Z 27002KT 22/22 A2991 RMK A01 T02160216  RH  100%=      5-min Rain = 0
KCA1 141043Z 25003KT 22/22 A2991 RMK A01 T02160216  RH  100%=      5-min Rain = 0
KCA1 141044Z 24004KT 22/22 A2991 RMK A01 T02150215  RH  100%=      5-min Rain = 0
KCA1 141045Z 24004KT 21/21 A2991 RMK A01 T02140214  RH  100%=      5-min Rain = 0
KCA1 141046Z 24004KT 21/21 A2991 RMK A01 T02140214  RH  100%=      5-min Rain = 0
KCA1 141047Z 25004KT 21/21 A2991 RMK A01 T02140214  RH  100%=      5-min Rain = 0
KCA1 141048Z 25003KT 21/21 A2991 RMK A01 T02140214  RH  100%=      5-min Rain = 0
KCA1 141049Z 26003KT 21/22 A2991 RMK A01 T02140215  RH  100%=      5-min Rain = 0
KCA1 141050Z 27002KT 22/22 A2991 RMK A01 T02150215  RH  100%=      5-min Rain = 0
KCA1 141051Z 26003KT 22/22 A2991 RMK A01 T02160216  RH  100%=      5-min Rain = 0
KCA1 141052Z 27002KT 22/22 A2991 RMK A01 T02160216  RH  100%=      5-min Rain = 0
KCA1 141053Z 28002KT 22/22 A2991 RMK A01 T02170217  RH  100%=      5-min Rain = 0
KCA1 141054Z 30002KT 22/22 A2991 RMK A01 T02170217  RH  100%=      5-min Rain = 0
KCA1 141055Z 32001KT 22/22 A2991 RMK A01 T02170217  RH  100%=      5-min Rain = 0
KCA1 141056Z 27002KT 22/22 A2991 RMK A01 T02180218  RH  100%=      5-min Rain = 0
KCA1 141057Z 25002KT 22/22 A2991 RMK A01 T02170218  RH  100%=      5-min Rain = 0
KCA1 141058Z 23002KT 22/22 A2991 RMK A01 T02180218  RH  100%=      5-min Rain = 0
KCA1 141059Z 24002KT 22/22 A2991 RMK A01 T02170217  RH  100%=      5-min Rain = 0
KCA1 141100Z 25003KT 22/22 A2991 RMK A01 T02170217  RH  100%=      5-min Rain = 0
KCA1 141101Z 24003KT 22/22 A2991 RMK A01 T02160216  RH  100%=      5-min Rain = 0
KCA1 141102Z 23002KT 22/22 A2991 RMK A01 T02170217  RH  100%=      5-min Rain = 0
KCA1 141103Z 24002KT 22/22 A2991 RMK A01 T02160217  RH  100%=      5-min Rain = 0
KCA1 141104Z 25002KT 22/22 A2991 RMK A01 T02170217  RH  100%=      5-min Rain = 0
KCA1 141105Z 25002KT 22/22 A2991 RMK A01 T02160217  RH  100%=      5-min Rain = 0
KCA1 141106Z 27001KT 22/22 A2991 RMK A01 T02170217  RH  100%=      5-min Rain = 0
KCA1 141107Z 29001KT 22/22 A2991 RMK A01 T02170217  RH  100%=      5-min Rain = 0
KCA1 141108Z 28001KT 22/22 A2991 RMK A01 T02170217  RH  100%=      5-min Rain = 0
KCA1 141109Z 00000KT 22/22 A2991 RMK A01 T02170218  RH  100%=      5-min Rain = 0
KCA1 141110Z 24000KT 22/22 A2991 RMK A01 T02180218  RH  100%=      5-min Rain = 0
KCA1 141111Z 23000KT 22/22 A2991 RMK A01 T02180218  RH  100%=      5-min Rain = 0
KCA1 141112Z 23001KT 22/22 A2991 RMK A01 T02180218  RH  100%=      5-min Rain = 0
KCA1 141113Z 24001KT 22/22 A2991 RMK A01 T02180218  RH  100%=      5-min Rain = 0
KCA1 141114Z 25002KT 22/22 A2991 RMK A01 T02180218  RH  100%=      5-min Rain = 0
KCA1 141115Z 25001KT 22/22 A2991 RMK A01 T02180218  RH  100%=      5-min Rain = 0
KCA1 141116Z 26001KT 22/22 A2991 RMK A01 T02180218  RH  100%=      5-min Rain = 0
KCA1 141117Z 27001KT 22/22 A2991 RMK A01 T02180218  RH  100%=      5-min Rain = 0
KCA1 141118Z 27002KT 22/22 A2991 RMK A01 T02180218  RH  100%=      5-min Rain = 0
KCA1 141119Z 27002KT 22/22 A2991 RMK A01 T02180218  RH  100%=      5-min Rain = 0
KCA1 141120Z 27002KT 22/22 A2991 RMK A01 T02180218  RH  100%=      5-min Rain = 0
KCA1 141121Z 27002KT 22/22 A2991 RMK A01 T02180219  RH  100%=      5-min Rain = 0
KCA1 141122Z 27003KT 22/22 A2991 RMK A01 T02190219  RH  100%=      5-min Rain = 0
KCA1 141123Z 26003KT 22/22 A2991 RMK A01 T02190219  RH  100%=      5-min Rain = 0
KCA1 141124Z 26003KT 22/22 A2991 RMK A01 T02190219  RH  100%=      5-min Rain = 0
KCA1 141125Z 27003KT 22/22 A2991 RMK A01 T02190219  RH  100%=      5-min Rain = 0
KCA1 141126Z 27003KT 22/22 A2991 RMK A01 T02190219  RH  100%=      5-min Rain = 0
KCA1 141127Z 28003KT 22/22 A2991 RMK A01 T02190219  RH  100%=      5-min Rain = 0
KCA1 141128Z 28003KT 22/22 A2991 RMK A01 T02190219  RH  100%=      5-min Rain = 0
KCA1 141129Z 29003KT 22/22 A2991 RMK A01 T02190219  RH  100%=      5-min Rain = 0
KCA1 141130Z 29004KT 22/22 A2991 RMK A01 T02190219  RH  100%=      5-min Rain = 0
KCA1 141131Z 30005KT 22/22 A2991 RMK A01 T02190219  RH  100%=      5-min Rain = 0
KCA1 141132Z 30005KT 22/22 A2991 RMK A01 T02190219  RH  100%=      5-min Rain = 0
KCA1 141133Z 29005KT 22/22 A2992 RMK A01 T02190219  RH  100%=      5-min Rain = 0
KCA1 141134Z 29005KT 22/22 A2992 RMK A01 T02190219  RH  100%=      5-min Rain = 0
KCA1 141135Z 29004KT 22/22 A2992 RMK A01 T02200220  RH  100%=      5-min Rain = 0
KCA1 141136Z 29004KT 22/22 A2992 RMK A01 T02200220  RH  100%=      5-min Rain = 0
KCA1 141137Z 29005KT 22/22 A2992 RMK A01 T02200220  RH  100%=      5-min Rain = 0
KCA1 141138Z 28005KT 22/22 A2992 RMK A01 T02200221  RH  100%=      5-min Rain = 0
KCA1 141139Z 29005KT 22/22 A2992 RMK A01 T02200220  RH  100%=      5-min Rain = 0
KCA1 141140Z 29004KT 22/22 A2992 RMK A01 T02200220  RH  100%=      5-min Rain = 0
KCA1 141141Z 29005KT 22/22 A2992 RMK A01 T02210221  RH  100%=      5-min Rain = 0
KCA1 141142Z 29005KT 22/22 A2992 RMK A01 T02210221  RH  100%=      5-min Rain = 0
KCA1 141143Z 29005KT 22/22 A2992 RMK A01 T02210221  RH  100%=      5-min Rain = 0
KCA1 141144Z 29005KT 22/22 A2992 RMK A01 T02210221  RH  100%=      5-min Rain = 0
KCA1 141145Z 29004KT 22/22 A2992 RMK A01 T02210221  RH  100%=      5-min Rain = 0
KCA1 141146Z 29004KT 22/22 A2992 RMK A01 T02210221  RH  100%=      5-min Rain = 0
KCA1 141147Z 30003KT 22/22 A2992 RMK A01 T02210221  RH  100%=      5-min Rain = 0
KCA1 141148Z 30003KT 22/22 A2992 RMK A01 T02210221  RH  100%=      5-min Rain = 0
KCA1 141149Z 30003KT 22/22 A2992 RMK A01 T02210221  RH  100%=      5-min Rain = 0
KCA1 141150Z 30004KT 22/22 A2992 RMK A01 T02210221  RH  100%=      5-min Rain = 0
KCA1 141151Z 31004KT 22/22 A2992 RMK A01 T02210221  RH  100%=      5-min Rain = 0
KCA1 141152Z 32004KT 22/22 A2992 RMK A01 T02210221  RH  100%=      5-min Rain = 0
KCA1 141153Z 32004KT 22/22 A2992 RMK A01 T02210221  RH  100%=      5-min Rain = 0
KCA1 141154Z 32005KT 22/22 A2992 RMK A01 T02220222  RH  100%=      5-min Rain = 0
KCA1 141155Z 33005KT 22/22 A2992 RMK A01 T02220222  RH  100%=      5-min Rain = 0
KCA1 141156Z 33005KT 22/22 A2992 RMK A01 T02220222  RH  100%=      5-min Rain = 0
KCA1 141157Z 33006KT 22/22 A2992 RMK A01 T02220222  RH  100%=      5-min Rain = 0
KCA1 141158Z 33005KT 22/22 A2992 RMK A01 T02220222  RH  100%=      5-min Rain = 0
KCA1 141159Z 33005KT 22/22 A2992 RMK A01 T02220222  RH  100%=      5-min Rain = 0
KCA1 141200Z 33005KT 22/22 A2992 RMK A01 T02220222  RH  100%=      5-min Rain = 0
KCA1 141201Z 33004KT 22/22 A2992 RMK A01 T02220222  RH  100%=      5-min Rain = 0
KCA1 141202Z 33004KT 22/22 A2992 RMK A01 T02220222  RH  100%=      5-min Rain = 0
KCA1 141203Z 33003KT 22/22 A2992 RMK A01 T02220222  RH  100%=      5-min Rain = 0
KCA1 141204Z 33003KT 22/22 A2992 RMK A01 T02220222  RH  100%=      5-min Rain = 0
KCA1 141205Z 33003KT 22/22 A2992 RMK A01 T02220222  RH  100%=      5-min Rain = 0
KCA1 141206Z 32003KT 22/22 A2992 RMK A01 T02220222  RH  100%=      5-min Rain = 0
KCA1 141207Z 31003KT 22/22 A2992 RMK A01 T02230223  RH  100%=      5-min Rain = 0
KCA1 141208Z 31004KT 22/22 A2993 RMK A01 T02230223  RH  100%=      5-min Rain = 0
KCA1 141209Z 31004KT 22/22 A2993 RMK A01 T02230223  RH  100%=      5-min Rain = 0
KCA1 141210Z 31004KT 22/22 A2993 RMK A01 T02220222  RH  100%=      5-min Rain = 0
KCA1 141211Z 31004KT 22/22 A2993 RMK A01 T02220223  RH  100%=      5-min Rain = 0
KCA1 141212Z 32004KT 22/22 A2993 RMK A01 T02230223  RH  100%=      5-min Rain = 0
KCA1 141213Z 31004KT 22/22 A2993 RMK A01 T02230223  RH  100%=      5-min Rain = 0
KCA1 141214Z 31005KT 22/22 A2993 RMK A01 T02230223  RH  100%=      5-min Rain = 0
KCA1 141215Z 32005KT 22/22 A2993 RMK A01 T02230223  RH  100%=      5-min Rain = 0
KCA1 141216Z 33006KT 22/22 A2993 RMK A01 T02230223  RH  100%=      5-min Rain = 0
KCA1 141217Z 33005KT 22/22 A2993 RMK A01 T02230223  RH  100%=      5-min Rain = 0
KCA1 141218Z 32005KT 22/22 A2993 RMK A01 T02230223  RH  100%=      5-min Rain = 0
KCA1 141219Z 31004KT 22/22 A2993 RMK A01 T02230223  RH  100%=      5-min Rain = 0
KCA1 141220Z 30005KT 22/22 A2993 RMK A01 T02230223  RH  100%=      5-min Rain = 0
KCA1 141221Z 30004KT 22/22 A2993 RMK A01 T02230223  RH  100%=      5-min Rain = 0
KCA1 141222Z 29004KT 22/22 A2993 RMK A01 T02230223  RH  100%=      5-min Rain = 0
KCA1 141223Z 30004KT 22/22 A2993 RMK A01 T02230223  RH  100%=      5-min Rain = 0
KCA1 141224Z 30003KT 22/22 A2993 RMK A01 T02230223  RH  100%=      5-min Rain = 0
KCA1 141225Z 31003KT 22/22 A2993 RMK A01 T02230223  RH  100%=      5-min Rain = 0
KCA1 141226Z 32003KT 22/22 A2993 RMK A01 T02230224  RH  100%=      5-min Rain = 0
KCA1 141227Z 32004KT 22/22 A2993 RMK A01 T02230223  RH  100%=      5-min Rain = 0
KCA1 141228Z 31004KT 22/22 A2993 RMK A01 T02230224  RH  100%=      5-min Rain = 0
KCA1 141229Z 32003KT 22/22 A2993 RMK A01 T02240224  RH  100%=      5-min Rain = 0
KCA1 141230Z 32003KT 22/22 A2993 RMK A01 T02230223  RH  100%=      5-min Rain = 0
KCA1 141231Z 32003KT 22/22 A2993 RMK A01 T02240224  RH  100%=      5-min Rain = 0
KCA1 141232Z 32003KT 22/22 A2993 RMK A01 T02240224  RH  100%=      5-min Rain = 0
KCA1 141233Z 33003KT 22/22 A2993 RMK A01 T02240224  RH  100%=      5-min Rain = 0
KCA1 141234Z 32003KT 22/22 A2993 RMK A01 T02240224  RH  100%=      5-min Rain = 0
KCA1 141235Z 32003KT 22/22 A2993 RMK A01 T02240224  RH  100%=      5-min Rain = 0
KCA1 141236Z 33003KT 22/22 A2993 RMK A01 T02240224  RH  100%=      5-min Rain = 0
KCA1 141237Z 33003KT 22/22 A2993 RMK A01 T02240224  RH  100%=      5-min Rain = 0
KCA1 141238Z 32003KT 22/22 A2993 RMK A01 T02240224  RH  100%=      5-min Rain = 0
KCA1 141239Z 31004KT 22/22 A2993 RMK A01 T02240224  RH  100%=      5-min Rain = 0
KCA1 141240Z 30004KT 22/22 A2993 RMK A01 T02240224  RH  100%=      5-min Rain = 0
KCA1 141241Z 31003KT 22/22 A2993 RMK A01 T02230224  RH  100%=      5-min Rain = 0
KCA1 141242Z 31004KT 22/22 A2993 RMK A01 T02230223  RH  100%=      5-min Rain = 0
KCA1 141243Z 33004KT 22/22 A2993 RMK A01 T02230223  RH  100%=      5-min Rain = 0
KCA1 141244Z 33004KT 22/22 A2993 RMK A01 T02240224  RH  100%=      5-min Rain = 0
KCA1 141245Z 33003KT 22/22 A2993 RMK A01 T02240224  RH  100%=      5-min Rain = 0
KCA1 141246Z 33004KT 22/22 A2993 RMK A01 T02230223  RH  100%=      5-min Rain = 0
KCA1 141247Z 32003KT 22/22 A2993 RMK A01 T02230224  RH  100%=      5-min Rain = 0
KCA1 141248Z 32003KT 22/22 A2993 RMK A01 T02240224  RH  100%=      5-min Rain = 0
KCA1 141249Z 33004KT 22/22 A2993 RMK A01 T02240224  RH  100%=      5-min Rain = 0
KCA1 141250Z 34004KT 23/23 A2993 RMK A01 T02250225  RH  100%=      5-min Rain = 0
KCA1 141251Z 34004KT 22/23 A2993 RMK A01 T02240225  RH  100%=      5-min Rain = 0
KCA1 141252Z 34005KT 22/22 A2993 RMK A01 T02230224  RH  100%=      5-min Rain = 0
KCA1 141253Z 33004KT 22/22 A2993 RMK A01 T02220222  RH  100%=      5-min Rain = 0
KCA1 141254Z 33003KT 22/22 A2993 RMK A01 T02220222  RH  100%=      5-min Rain = 0
KCA1 141255Z 34004KT 22/22 A2993 RMK A01 T02220222  RH  100%=      5-min Rain = 0
KCA1 141256Z 35005KT 22/22 A2993 RMK A01 T02220222  RH  100%=      5-min Rain = 0
KCA1 141257Z 34004KT 22/22 A2993 RMK A01 T02220222  RH  100%=      5-min Rain = 0
KCA1 141258Z 33004KT 22/22 A2993 RMK A01 T02210222  RH  100%=      5-min Rain = 0
KCA1 141259Z 33004KT 22/22 A2993 RMK A01 T02220222  RH  100%=      5-min Rain = 0
KCA1 141300Z 32003KT 22/22 A2993 RMK A01 T02220222  RH  100%=      5-min Rain = 0
KCA1 141301Z 32003KT 22/22 A2993 RMK A01 T02220222  RH  100%=      5-min Rain = 0
KCA1 141302Z 32003KT 22/22 A2993 RMK A01 T02220222  RH  100%=      5-min Rain = 0
KCA1 141303Z 32003KT 22/22 A2993 RMK A01 T02220222  RH  100%=      5-min Rain = 0
KCA1 141304Z 31004KT 22/22 A2994 RMK A01 T02220223  RH  100%=      5-min Rain = 0
KCA1 141305Z 30005KT 22/22 A2994 RMK A01 T02230223  RH  100%=      5-min Rain = 0
KCA1 141306Z 29004KT 22/22 A2994 RMK A01 T02230223  RH  100%=      5-min Rain = 0
KCA1 141307Z 28004KT 22/22 A2994 RMK A01 T02230223  RH  100%=      5-min Rain = 0
KCA1 141308Z 28003KT 22/22 A2994 RMK A01 T02220223  RH  100%=      5-min Rain = 0
KCA1 141309Z 29003KT 22/22 A2994 RMK A01 T02230223  RH  100%=      5-min Rain = 0
KCA1 141310Z 31003KT 22/22 A2994 RMK A01 T02220223  RH  100%=      5-min Rain = 0
KCA1 141311Z 32003KT 22/22 A2994 RMK A01 T02230223  RH  100%=      5-min Rain = 0
KCA1 141312Z 33003KT 22/22 A2994 RMK A01 T02230223  RH  100%=      5-min Rain = 0
KCA1 141313Z 32004KT 22/22 A2994 RMK A01 T02240224  RH  100%=      5-min Rain = 0
KCA1 141314Z 33004KT 22/22 A2994 RMK A01 T02240224  RH  100%=      5-min Rain = 0
KCA1 141315Z 33005KT 22/22 A2994 RMK A01 T02240224  RH  100%=      5-min Rain = 0
KCA1 141316Z 33005KT 22/22 A2994 RMK A01 T02230223  RH  100%=      5-min Rain = 0
KCA1 141317Z 33004KT 22/22 A2994 RMK A01 T02230223  RH  100%=      5-min Rain = 0
KCA1 141318Z 31004KT 22/22 A2994 RMK A01 T02230223  RH  100%=      5-min Rain = 0
KCA1 141319Z 31004KT 22/22 A2994 RMK A01 T02220223  RH  100%=      5-min Rain = 0
KCA1 141320Z 31004KT 22/22 A2994 RMK A01 T02220223  RH  100%=      5-min Rain = 0
KCA1 141321Z 30003KT 22/22 A2994 RMK A01 T02230223  RH  100%=      5-min Rain = 0
KCA1 141322Z 30002KT 22/22 A2994 RMK A01 T02230223  RH  100%=      5-min Rain = 0
KCA1 141323Z 30003KT 22/22 A2994 RMK A01 T02240224  RH  100%=      5-min Rain = 0
KCA1 141324Z 30004KT 22/23 A2994 RMK A01 T02240225  RH  100%=      5-min Rain = 0
KCA1 141325Z 30005KT 22/23 A2994 RMK A01 T02240225  RH  100%=      5-min Rain = 0
KCA1 141326Z 31005KT 23/23 A2994 RMK A01 T02250225  RH  100%=      5-min Rain = 0
KCA1 141327Z 31004KT 22/23 A2994 RMK A01 T02240225  RH  100%=      5-min Rain = 0
KCA1 141328Z 30005KT 22/22 A2994 RMK A01 T02240224  RH  100%=      5-min Rain = 0
KCA1 141329Z 30004KT 23/23 A2994 RMK A01 T02250225  RH  100%=      5-min Rain = 0
KCA1 141330Z 30003KT 23/23 A2994 RMK A01 T02250225  RH  100%=      5-min Rain = 0
KCA1 141331Z 31004KT 23/23 A2995 RMK A01 T02250225  RH  100%=      5-min Rain = 0
KCA1 141332Z 30005KT 23/23 A2995 RMK A01 T02250225  RH  100%=      5-min Rain = 0
KCA1 141333Z 30004KT 22/22 A2995 RMK A01 T02240224  RH  100%=      5-min Rain = 0
KCA1 141334Z 30003KT 22/22 A2995 RMK A01 T02230224  RH  100%=      5-min Rain = 0
KCA1 141335Z 31005KT 22/22 A2994 RMK A01 T02240224  RH  100%=      5-min Rain = 0
KCA1 141336Z 31004KT 22/22 A2994 RMK A01 T02240224  RH  100%=      5-min Rain = 0
KCA1 141337Z 30003KT 22/22 A2994 RMK A01 T02240224  RH  100%=      5-min Rain = 0
KCA1 141338Z 29003KT 22/22 A2994 RMK A01 T02240224  RH  100%=      5-min Rain = 0
KCA1 141339Z 31005KT 23/23 A2994 RMK A01 T02260226  RH  100%=      5-min Rain = 0
KCA1 141340Z 32004KT 23/23 A2994 RMK A01 T02260227  RH  100%=      5-min Rain = 0
KCA1 141341Z 31004KT 23/23 A2994 RMK A01 T02260226  RH  100%=      5-min Rain = 0
KCA1 141342Z 31005KT 23/23 A2994 RMK A01 T02260226  RH  100%=      5-min Rain = 0
KCA1 141343Z 32004KT 23/23 A2994 RMK A01 T02260227  RH  100%=      5-min Rain = 0
KCA1 141344Z 32005KT 23/23 A2994 RMK A01 T02260226  RH  100%=      5-min Rain = 0
KCA1 141345Z 32006KT 23/23 A2994 RMK A01 T02270227  RH  100%=      5-min Rain = 0
KCA1 141346Z 32006KT 23/23 A2994 RMK A01 T02270227  RH  100%=      5-min Rain = 0
KCA1 141347Z 31005KT 23/23 A2994 RMK A01 T02260226  RH  100%=      5-min Rain = 0
KCA1 141348Z 31005KT 23/23 A2994 RMK A01 T02260226  RH  100%=      5-min Rain = 0
KCA1 141349Z 32007KT 23/23 A2995 RMK A01 T02270227  RH  100%=      5-min Rain = 0
KCA1 141350Z 32005KT 23/23 A2995 RMK A01 T02270227  RH  100%=      5-min Rain = 0
KCA1 141351Z 31004KT 23/23 A2995 RMK A01 T02260226  RH  100%=      5-min Rain = 0
KCA1 141352Z 30004KT 23/23 A2995 RMK A01 T02270228  RH  100%=      5-min Rain = 0
KCA1 141353Z 29004KT 23/23 A2995 RMK A01 T02280228  RH  100%=      5-min Rain = 0
KCA1 141354Z 28006KT 23/23 A2995 RMK A01 T02290229  RH  100%=      5-min Rain = 0
KCA1 141355Z 29006KT 23/23 A2995 RMK A01 T02280229  RH  100%=      5-min Rain = 0
KCA1 141356Z 29005KT 23/23 A2995 RMK A01 T02280229  RH  100%=      5-min Rain = 0
KCA1 141357Z 28005KT 23/23 A2995 RMK A01 T02290229  RH  100%=      5-min Rain = 0
KCA1 141358Z 28005KT 23/23 A2995 RMK A01 T02300230  RH  100%=      5-min Rain = 0
KCA1 141359Z 28006KT 23/23 A2995 RMK A01 T02290230  RH  100%=      5-min Rain = 0
KCA1 141400Z 29008KT 23/23 A2994 RMK A01 T02290229  RH  100%=      5-min Rain = 0
KCA1 141401Z 29008KT 23/23 A2994 RMK A01 T02290230  RH  100%=      5-min Rain = 0
KCA1 141402Z 29007KT 23/23 A2994 RMK A01 T02290230  RH  100%=      5-min Rain = 0
KCA1 141403Z 30006KT 23/23 A2994 RMK A01 T02290229  RH  100%=      5-min Rain = 0
KCA1 141404Z 29006KT 23/23 A2994 RMK A01 T02290229  RH  100%=      5-min Rain = 0
KCA1 141405Z 29007KT 23/23 A2994 RMK A01 T02290229  RH  100%=      5-min Rain = 0
KCA1 141406Z 30005KT 23/23 A2994 RMK A01 T02300230  RH  100%=      5-min Rain = 0
KCA1 141407Z 30005KT 23/23 A2994 RMK A01 T02300231  RH  100%=      5-min Rain = 0
KCA1 141408Z 30006KT 23/23 A2994 RMK A01 T02310231  RH  100%=      5-min Rain = 0
KCA1 141409Z 29005KT 23/23 A2994 RMK A01 T02310231  RH  100%=      5-min Rain = 0
KCA1 141410Z 28008KT 23/23 A2995 RMK A01 T02310232  RH  100%=      5-min Rain = 0
KCA1 141411Z 29008KT 23/23 A2995 RMK A01 T02320232  RH  100%=      5-min Rain = 0
KCA1 141412Z 29007KT 23/23 A2995 RMK A01 T02320232  RH  100%=      5-min Rain = 0
KCA1 141413Z 29006KT 23/23 A2995 RMK A01 T02320231  RH  100%=      5-min Rain = 0
KCA1 141414Z 29006KT 23/23 A2995 RMK A01 T02320232  RH  100%=      5-min Rain = 0
KCA1 141415Z 29008KT 23/23 A2995 RMK A01 T02320232  RH  100%=      5-min Rain = 0
KCA1 141416Z 29008KT 23/23 A2995 RMK A01 T02330233  RH  100%=      5-min Rain = 0
KCA1 141417Z 29009KT 23/23 A2995 RMK A01 T02340233  RH  099%=      5-min Rain = 0
KCA1 141418Z 31007KT 23/23 A2995 RMK A01 T02340232  RH  099%=      5-min Rain = 0
KCA1 141419Z 31006KT 23/23 A2995 RMK A01 T02340232  RH  099%=      5-min Rain = 0
KCA1 141420Z 31007KT 24/23 A2995 RMK A01 T02350233  RH  099%=      5-min Rain = 0
KCA1 141421Z 29009KT 24/23 A2995 RMK A01 T02360233  RH  098%=      5-min Rain = 0
KCA1 141422Z 29010KT 24/23 A2995 RMK A01 T02370233  RH  098%=      5-min Rain = 0
KCA1 141423Z 29012KT 24/23 A2995 RMK A01 T02380232  RH  097%=      5-min Rain = 0
KCA1 141424Z 30009KT 24/23 A2995 RMK A01 T02370230  RH  096%=      5-min Rain = 0
KCA1 141425Z 30009KT 24/23 A2995 RMK A01 T02360231  RH  097%=      5-min Rain = 0
KCA1 141426Z 29010KT 24/23 A2995 RMK A01 T02360231  RH  097%=      5-min Rain = 0
KCA1 141427Z 30008KT 24/23 A2996 RMK A01 T02360231  RH  097%=      5-min Rain = 0
KCA1 141428Z 28007KT 24/23 A2996 RMK A01 T02360232  RH  097%=      5-min Rain = 0
KCA1 141429Z 27008KT 24/23 A2996 RMK A01 T02370232  RH  097%=      5-min Rain = 0
KCA1 141430Z 28007KT 24/23 A2996 RMK A01 T02380232  RH  097%=      5-min Rain = 0
KCA1 141431Z 27008KT 24/23 A2995 RMK A01 T02380231  RH  096%=      5-min Rain = 0
KCA1 141432Z 28010KT 24/23 A2995 RMK A01 T02370230  RH  096%=      5-min Rain = 0
KCA1 141433Z 28009KT 24/23 A2995 RMK A01 T02360230  RH  096%=      5-min Rain = 0
KCA1 141434Z 29009KT 24/23 A2995 RMK A01 T02360230  RH  097%=      5-min Rain = 0
KCA1 141435Z 28008KT 24/23 A2995 RMK A01 T02360230  RH  097%=      5-min Rain = 0
KCA1 141436Z 28008KT 24/23 A2995 RMK A01 T02360231  RH  097%=      5-min Rain = 0
KCA1 141437Z 30007KT 24/23 A2995 RMK A01 T02370231  RH  096%=      5-min Rain = 0
KCA1 141438Z 30008KT 24/23 A2995 RMK A01 T02390232  RH  096%=      5-min Rain = 0
KCA1 141439Z 30008KT 24/23 A2995 RMK A01 T02400232  RH  095%=      5-min Rain = 0
KCA1 141440Z 30008KT 24/23 A2995 RMK A01 T02410232  RH  095%=      5-min Rain = 0
KCA1 141441Z 30010KT 24/23 A2995 RMK A01 T02410231  RH  094%=      5-min Rain = 0
KCA1 141442Z 29011KT 24/23 A2995 RMK A01 T02420230  RH  093%=      5-min Rain = 0
KCA1 141443Z 28010KT 24/23 A2995 RMK A01 T02420230  RH  093%=      5-min Rain = 0
KCA1 141444Z 28011KT 24/23 A2995 RMK A01 T02410230  RH  094%=      5-min Rain = 0
KCA1 141445Z 29012KT 24/23 A2995 RMK A01 T02420230  RH  093%=      5-min Rain = 0
KCA1 141446Z 30011KT 24/23 A2996 RMK A01 T02420229  RH  093%=      5-min Rain = 0
KCA1 141447Z 30011KT 24/23 A2996 RMK A01 T02410229  RH  093%=      5-min Rain = 0
KCA1 141448Z 29011KT 24/23 A2996 RMK A01 T02400229  RH  093%=      5-min Rain = 0
KCA1 141449Z 28010KT 24/23 A2996 RMK A01 T02400230  RH  094%=      5-min Rain = 0
KCA1 141450Z 28011KT 24/23 A2996 RMK A01 T02410230  RH  093%=      5-min Rain = 0
KCA1 141451Z 29007KT 24/23 A2996 RMK A01 T02410230  RH  093%=      5-min Rain = 0
KCA1 141452Z 29008KT 24/23 A2996 RMK A01 T02430232  RH  094%=      5-min Rain = 0
KCA1 141453Z 29010KT 24/23 A2996 RMK A01 T02440232  RH  093%=      5-min Rain = 0
KCA1 141454Z 28010KT 25/23 A2996 RMK A01 T02450231  RH  092%=      5-min Rain = 0
KCA1 141455Z 29009KT 25/23 A2996 RMK A01 T02450230  RH  091%=      5-min Rain = 0
KCA1 141456Z 29009KT 24/23 A2996 RMK A01 T02440230  RH  092%=      5-min Rain = 0
KCA1 141457Z 29008KT 24/23 A2996 RMK A01 T02440229  RH  091%=      5-min Rain = 0
KCA1 141458Z 30009KT 24/23 A2996 RMK A01 T02440230  RH  092%=      5-min Rain = 0
KCA1 141459Z 31009KT 24/23 A2996 RMK A01 T02440229  RH  092%=      5-min Rain = 0
KCA1 141500Z 31010KT 25/23 A2996 RMK A01 T02450229  RH  091%=      5-min Rain = 0
KCA1 141501Z 31010KT 25/23 A2996 RMK A01 T02470229  RH  090%=      5-min Rain = 0
KCA1 141502Z 31011KT 25/23 A2996 RMK A01 T02480230  RH  089%=      5-min Rain = 0
KCA1 141503Z 31010KT 25/23 A2996 RMK A01 T02490228  RH  089%=      5-min Rain = 0
KCA1 141504Z 31011KT 25/23 A2996 RMK A01 T02480228  RH  089%=      5-min Rain = 0
KCA1 141505Z 32010KT 25/23 A2996 RMK A01 T02480228  RH  089%=      5-min Rain = 0
KCA1 141506Z 32010KT 25/23 A2996 RMK A01 T02480228  RH  088%=      5-min Rain = 0
KCA1 141507Z 32011KT 25/23 A2996 RMK A01 T02480228  RH  089%=      5-min Rain = 0
KCA1 141508Z 32009KT 25/23 A2996 RMK A01 T02480228  RH  089%=      5-min Rain = 0
KCA1 141509Z 32009KT 25/23 A2996 RMK A01 T02490228  RH  088%=      5-min Rain = 0
KCA1 141510Z 31008KT 25/23 A2996 RMK A01 T02490229  RH  088%=      5-min Rain = 0
KCA1 141511Z 32010KT 25/23 A2996 RMK A01 T02500229  RH  088%=      5-min Rain = 0
KCA1 141512Z 32010KT 25/23 A2996 RMK A01 T02520229  RH  087%=      5-min Rain = 0
KCA1 141513Z 31009KT 25/23 A2996 RMK A01 T02520229  RH  087%=      5-min Rain = 0
KCA1 141514Z 31009KT 25/23 A2996 RMK A01 T02500227  RH  087%=      5-min Rain = 0
KCA1 141515Z 29008KT 25/23 A2995 RMK A01 T02490228  RH  088%=      5-min Rain = 0
KCA1 141516Z 30009KT 25/23 A2995 RMK A01 T02490229  RH  089%=      5-min Rain = 0
KCA1 141517Z 32010KT 25/23 A2995 RMK A01 T02500230  RH  089%=      5-min Rain = 0
KCA1 141518Z 33010KT 25/23 A2995 RMK A01 T02510229  RH  088%=      5-min Rain = 0
KCA1 141519Z 33009KT 25/23 A2995 RMK A01 T02520229  RH  087%=      5-min Rain = 0
KCA1 141520Z 31010KT 25/23 A2995 RMK A01 T02540230  RH  087%=      5-min Rain = 0
KCA1 141521Z 31010KT 26/23 A2995 RMK A01 T02550229  RH  085%=      5-min Rain = 0
KCA1 141522Z 31009KT 25/23 A2995 RMK A01 T02540228  RH  085%=      5-min Rain = 0
KCA1 141523Z 32007KT 25/23 A2995 RMK A01 T02540230  RH  087%=      5-min Rain = 0
KCA1 141524Z 33009KT 26/23 A2995 RMK A01 T02550230  RH  086%=      5-min Rain = 0
KCA1 141525Z 32008KT 26/23 A2995 RMK A01 T02550229  RH  085%=      5-min Rain = 0
KCA1 141526Z 33007KT 26/23 A2995 RMK A01 T02560230  RH  086%=      5-min Rain = 0
KCA1 141527Z 31006KT 26/23 A2995 RMK A01 T02570230  RH  085%=      5-min Rain = 0
KCA1 141528Z 31005KT 26/23 A2995 RMK A01 T02600233  RH  085%=      5-min Rain = 0
KCA1 141529Z 31007KT 26/23 A2995 RMK A01 T02620233  RH  084%=      5-min Rain = 0
KCA1 141530Z 30008KT 26/23 A2995 RMK A01 T02630231  RH  083%=      5-min Rain = 0
KCA1 141531Z 30008KT 26/23 A2995 RMK A01 T02620230  RH  083%=      5-min Rain = 0
KCA1 141532Z 32006KT 26/23 A2995 RMK A01 T02610230  RH  083%=      5-min Rain = 0
KCA1 141533Z 31006KT 26/23 A2995 RMK A01 T02610230  RH  083%=      5-min Rain = 0
KCA1 141534Z 31008KT 26/23 A2995 RMK A01 T02620231  RH  083%=      5-min Rain = 0
KCA1 141535Z 31008KT 26/23 A2995 RMK A01 T02640230  RH  082%=      5-min Rain = 0
KCA1 141536Z 32006KT 26/23 A2995 RMK A01 T02640229  RH  081%=      5-min Rain = 0
KCA1 141537Z 31004KT 26/23 A2995 RMK A01 T02640232  RH  083%=      5-min Rain = 0
KCA1 141538Z 29005KT 27/23 A2995 RMK A01 T02660232  RH  082%=      5-min Rain = 0
KCA1 141539Z 31005KT 27/23 A2995 RMK A01 T02670232  RH  081%=      5-min Rain = 0
KCA1 141540Z 34007KT 27/23 A2995 RMK A01 T02680231  RH  080%=      5-min Rain = 0
KCA1 141541Z 30005KT 27/23 A2995 RMK A01 T02700230  RH  079%=      5-min Rain = 0
KCA1 141542Z 30006KT 27/23 A2995 RMK A01 T02700231  RH  079%=      5-min Rain = 0
KCA1 141543Z 31005KT 27/23 A2995 RMK A01 T02690230  RH  079%=      5-min Rain = 0
KCA1 141544Z 30006KT 27/23 A2995 RMK A01 T02690232  RH  080%=      5-min Rain = 0
KCA1 141545Z 32008KT 27/23 A2994 RMK A01 T02710232  RH  079%=      5-min Rain = 0
KCA1 141546Z 31007KT 27/23 A2994 RMK A01 T02710233  RH  079%=      5-min Rain = 0
KCA1 141547Z 33008KT 27/23 A2994 RMK A01 T02740232  RH  078%=      5-min Rain = 0
KCA1 141548Z 33008KT 27/23 A2994 RMK A01 T02730229  RH  077%=      5-min Rain = 0
KCA1 141549Z 32007KT 27/23 A2994 RMK A01 T02720230  RH  078%=      5-min Rain = 0
KCA1 141550Z 32007KT 27/23 A2994 RMK A01 T02710230  RH  078%=      5-min Rain = 0
KCA1 141551Z 31006KT 27/23 A2995 RMK A01 T02720230  RH  078%=      5-min Rain = 0
KCA1 141552Z 31004KT 27/23 A2995 RMK A01 T02720231  RH  078%=      5-min Rain = 0
KCA1 141553Z 31005KT 27/23 A2995 RMK A01 T02720232  RH  078%=      5-min Rain = 0
KCA1 141554Z 31007KT 27/23 A2994 RMK A01 T02740232  RH  078%=      5-min Rain = 0
KCA1 141555Z 29007KT 28/23 A2994 RMK A01 T02750232  RH  077%=      5-min Rain = 0
KCA1 141556Z 29006KT 28/23 A2995 RMK A01 T02760231  RH  077%=      5-min Rain = 0
KCA1 141557Z 31007KT 28/23 A2995 RMK A01 T02770231  RH  076%=      5-min Rain = 0
KCA1 141558Z 29006KT 28/23 A2995 RMK A01 T02760232  RH  077%=      5-min Rain = 0
KCA1 141559Z 28005KT 28/23 A2995 RMK A01 T02770233  RH  077%=      5-min Rain = 0
KCA1 141600Z 27006KT 28/23 A2995 RMK A01 T02800234  RH  076%=      5-min Rain = 0
KCA1 141601Z 28006KT 28/23 A2995 RMK A01 T02820233  RH  075%=      5-min Rain = 0
KCA1 141602Z 30007KT 28/23 A2995 RMK A01 T02840233  RH  074%=      5-min Rain = 0
KCA1 141603Z 31005KT 29/23 A2995 RMK A01 T02850233  RH  074%=      5-min Rain = 0
KCA1 141604Z 33005KT 28/23 A2995 RMK A01 T02840232  RH  073%=      5-min Rain = 0
KCA1 141605Z 33004KT 28/23 A2995 RMK A01 T02840232  RH  074%=      5-min Rain = 0
KCA1 141606Z 34002KT 28/23 A2995 RMK A01 T02830231  RH  073%=      5-min Rain = 0
KCA1 141607Z 34002KT 28/23 A2995 RMK A01 T02830231  RH  074%=      5-min Rain = 0
KCA1 141608Z 30003KT 28/23 A2995 RMK A01 T02830232  RH  074%=      5-min Rain = 0
KCA1 141609Z 28005KT 29/23 A2995 RMK A01 T02850232  RH  073%=      5-min Rain = 0
KCA1 141610Z 30005KT 29/23 A2995 RMK A01 T02870234  RH  073%=      5-min Rain = 0
KCA1 141611Z 29005KT 29/23 A2995 RMK A01 T02890232  RH  072%=      5-min Rain = 0
KCA1 141612Z 29004KT 29/23 A2995 RMK A01 T02890230  RH  071%=      5-min Rain = 0
KCA1 141613Z 29003KT 29/23 A2995 RMK A01 T02890232  RH  072%=      5-min Rain = 0
KCA1 141614Z 29003KT 29/23 A2995 RMK A01 T02910234  RH  072%=      5-min Rain = 0
KCA1 141615Z 29006KT 29/23 A2995 RMK A01 T02930234  RH  070%=      5-min Rain = 0
KCA1 141616Z 30004KT 30/24 A2995 RMK A01 T02950235  RH  070%=      5-min Rain = 0
KCA1 141617Z 33007KT 30/24 A2995 RMK A01 T02960235  RH  070%=      5-min Rain = 0
KCA1 141618Z 34005KT 30/23 A2995 RMK A01 T02960233  RH  069%=      5-min Rain = 0
KCA1 141619Z 34004KT 30/23 A2995 RMK A01 T02950233  RH  069%=      5-min Rain = 0
KCA1 141620Z 35003KT 29/23 A2995 RMK A01 T02930232  RH  070%=      5-min Rain = 0
KCA1 141621Z 32003KT 29/23 A2995 RMK A01 T02930232  RH  070%=      5-min Rain = 0
KCA1 141622Z 01003KT 29/24 A2995 RMK A01 T02930235  RH  071%=      5-min Rain = 0
KCA1 141623Z 02005KT 30/23 A2995 RMK A01 T02970234  RH  069%=      5-min Rain = 0
KCA1 141624Z 01004KT 30/23 A2995 RMK A01 T02980233  RH  068%=      5-min Rain = 0
KCA1 141625Z 35002KT 30/23 A2995 RMK A01 T02990233  RH  068%=      5-min Rain = 0
KCA1 141626Z 31001KT 30/23 A2995 RMK A01 T03000232  RH  067%=      5-min Rain = 0
KCA1 141627Z 01002KT 30/23 A2995 RMK A01 T03010234  RH  067%=      5-min Rain = 0
KCA1 141628Z 03004KT 30/24 A2995 RMK A01 T03030237  RH  068%=      5-min Rain = 0
KCA1 141629Z 02002KT 31/24 A2995 RMK A01 T03050235  RH  066%=      5-min Rain = 0
KCA1 141630Z 02004KT 31/24 A2995 RMK A01 T03050236  RH  066%=      5-min Rain = 0
KCA1 141631Z 05003KT 30/23 A2995 RMK A01 T03040234  RH  066%=      5-min Rain = 0
KCA1 141632Z 02002KT 30/24 A2995 RMK A01 T03020236  RH  068%=      5-min Rain = 0
KCA1 141633Z 02004KT 30/24 A2995 RMK A01 T03020235  RH  067%=      5-min Rain = 0
KCA1 141634Z 02004KT 30/24 A2995 RMK A01 T03040235  RH  067%=      5-min Rain = 0
KCA1 141635Z 03002KT 31/23 A2995 RMK A01 T03050233  RH  066%=      5-min Rain = 0
KCA1 141636Z 01003KT 31/23 A2995 RMK A01 T03050234  RH  066%=      5-min Rain = 0
KCA1 141637Z 05004KT 31/23 A2995 RMK A01 T03050234  RH  066%=      5-min Rain = 0
KCA1 141638Z 04007KT 31/23 A2995 RMK A01 T03080234  RH  065%=      5-min Rain = 0
KCA1 141639Z 04005KT 31/23 A2995 RMK A01 T03110233  RH  063%=      5-min Rain = 0
KCA1 141640Z 03006KT 31/23 A2995 RMK A01 T03130232  RH  062%=      5-min Rain = 0
KCA1 141641Z 04007KT 32/23 A2995 RMK A01 T03150233  RH  062%=      5-min Rain = 0
KCA1 141642Z 03007KT 32/23 A2995 RMK A01 T03160231  RH  061%=      5-min Rain = 0
KCA1 141643Z 03006KT 32/23 A2995 RMK A01 T03150232  RH  061%=      5-min Rain = 0
KCA1 141644Z 03008KT 32/23 A2995 RMK A01 T03150231  RH  061%=      5-min Rain = 0
KCA1 141645Z 04005KT 32/23 A2995 RMK A01 T03160227  RH  059%=      5-min Rain = 0
KCA1 141646Z 04006KT 32/23 A2995 RMK A01 T03170229  RH  060%=      5-min Rain = 0
KCA1 141647Z 02007KT 32/23 A2995 RMK A01 T03210228  RH  058%=      5-min Rain = 0
KCA1 141648Z 01007KT 32/23 A2995 RMK A01 T03230227  RH  057%=      5-min Rain = 0
KCA1 141649Z 04010KT 32/22 A2995 RMK A01 T03240218  RH  054%=      5-min Rain = 0
KCA1 141650Z 03008KT 32/21 A2995 RMK A01 T03240214  RH  052%=      5-min Rain = 0
KCA1 141651Z 03009KT 32/21 A2995 RMK A01 T03240211  RH  051%=      5-min Rain = 0
KCA1 141652Z 03007KT 33/21 A2995 RMK A01 T03250212  RH  052%=      5-min Rain = 0
KCA1 141653Z 01007KT 32/22 A2995 RMK A01 T03230215  RH  053%=      5-min Rain = 0
KCA1 141654Z 01008KT 32/22 A2995 RMK A01 T03230218  RH  054%=      5-min Rain = 0
KCA1 141655Z 02010KT 33/22 A2995 RMK A01 T03250222  RH  055%=      5-min Rain = 0
KCA1 141656Z 02009KT 33/22 A2995 RMK A01 T03260221  RH  054%=      5-min Rain = 0
KCA1 141657Z 05011KT 33/22 A2996 RMK A01 T03250222  RH  055%=      5-min Rain = 0
KCA1 141658Z 04010KT 33/22 A2996 RMK A01 T03270220  RH  053%=      5-min Rain = 0
KCA1 141659Z 04006KT 33/22 A2996 RMK A01 T03290218  RH  052%=      5-min Rain = 0
KCA1 141700Z 03009KT 33/22 A2996 RMK A01 T03280221  RH  053%=      5-min Rain = 0
KCA1 141701Z 04010KT 33/22 A2996 RMK A01 T03260223  RH  055%=      5-min Rain = 0
KCA1 141702Z 04007KT 33/22 A2996 RMK A01 T03260222  RH  054%=      5-min Rain = 0
KCA1 141703Z 03008KT 33/22 A2996 RMK A01 T03260223  RH  055%=      5-min Rain = 0
KCA1 141704Z 02010KT 33/22 A2996 RMK A01 T03250224  RH  055%=      5-min Rain = 0
KCA1 141705Z 03009KT 33/22 A2996 RMK A01 T03260222  RH  055%=      5-min Rain = 0
KCA1 141706Z 03010KT 33/22 A2996 RMK A01 T03260224  RH  055%=      5-min Rain = 0
KCA1 141707Z 04009KT 33/23 A2996 RMK A01 T03280225  RH  055%=      5-min Rain = 0
KCA1 141708Z 05007KT 33/23 A2996 RMK A01 T03270227  RH  056%=      5-min Rain = 0
KCA1 141709Z 05008KT 33/23 A2996 RMK A01 T03280227  RH  056%=      5-min Rain = 0
KCA1 141710Z 06008KT 33/23 A2996 RMK A01 T03280227  RH  055%=      5-min Rain = 0
KCA1 141711Z 07008KT 33/23 A2996 RMK A01 T03280228  RH  056%=      5-min Rain = 0
KCA1 141712Z 07008KT 33/23 A2996 RMK A01 T03280228  RH  056%=      5-min Rain = 0
KCA1 141713Z 06006KT 33/23 A2996 RMK A01 T03270227  RH  056%=      5-min Rain = 0
KCA1 141714Z 05009KT 33/23 A2996 RMK A01 T03280226  RH  055%=      5-min Rain = 0
KCA1 141715Z 04008KT 33/22 A2996 RMK A01 T03290223  RH  054%=      5-min Rain = 0
KCA1 141716Z 05007KT 33/23 A2996 RMK A01 T03300226  RH  055%=      5-min Rain = 0
KCA1 141717Z 04009KT 33/23 A2996 RMK A01 T03320227  RH  054%=      5-min Rain = 0
KCA1 141718Z 04008KT 33/22 A2996 RMK A01 T03310224  RH  053%=      5-min Rain = 0
KCA1 141719Z 04006KT 33/22 A2996 RMK A01 T03270224  RH  054%=      5-min Rain = 0
KCA1 141720Z 05008KT 33/22 A2996 RMK A01 T03260223  RH  055%=      5-min Rain = 0
KCA1 141721Z 05010KT 33/22 A2996 RMK A01 T03260222  RH  054%=      5-min Rain = 0
KCA1 141722Z 06010KT 33/22 A2996 RMK A01 T03280223  RH  054%=      5-min Rain = 0
KCA1 141723Z 07008KT 33/22 A2996 RMK A01 T03280223  RH  054%=      5-min Rain = 0
KCA1 141724Z 08009KT 33/23 A2996 RMK A01 T03280225  RH  055%=      5-min Rain = 0
KCA1 141725Z 08006KT 33/23 A2996 RMK A01 T03270226  RH  055%=      5-min Rain = 0
KCA1 141726Z 07005KT 33/22 A2996 RMK A01 T03270223  RH  054%=      5-min Rain = 0
KCA1 141727Z 09007KT 33/22 A2996 RMK A01 T03250222  RH  055%=      5-min Rain = 0
KCA1 141728Z 09008KT 33/22 A2996 RMK A01 T03250224  RH  055%=      5-min Rain = 0
KCA1 141729Z 09006KT 33/23 A2996 RMK A01 T03250225  RH  056%=      5-min Rain = 0
KCA1 141730Z 09009KT 33/23 A2996 RMK A01 T03300227  RH  055%=      5-min Rain = 0
KCA1 141731Z 09008KT 33/22 A2996 RMK A01 T03320222  RH  053%=      5-min Rain = 0
KCA1 141732Z 07010KT 33/22 A2996 RMK A01 T03300223  RH  053%=      5-min Rain = 0
KCA1 141733Z 08010KT 33/22 A2996 RMK A01 T03300222  RH  053%=      5-min Rain = 0
KCA1 141734Z 07011KT 33/22 A2996 RMK A01 T03310223  RH  053%=      5-min Rain = 0
KCA1 141735Z 07010KT 33/22 A2996 RMK A01 T03320223  RH  053%=      5-min Rain = 0
KCA1 141736Z 08008KT 33/22 A2996 RMK A01 T03310223  RH  053%=      5-min Rain = 0
KCA1 141737Z 08008KT 33/22 A2996 RMK A01 T03290222  RH  053%=      5-min Rain = 0
KCA1 141738Z 09009KT 33/22 A2996 RMK A01 T03290223  RH  054%=      5-min Rain = 0
KCA1 141739Z 06006KT 33/23 A2996 RMK A01 T03300225  RH  054%=      5-min Rain = 0
KCA1 141740Z 06005KT 33/23 A2995 RMK A01 T03310225  RH  054%=      5-min Rain = 0
KCA1 141741Z 09009KT 33/23 A2995 RMK A01 T03330228  RH  054%=      5-min Rain = 0
KCA1 141742Z 09009KT 34/23 A2995 RMK A01 T03350225  RH  053%=      5-min Rain = 0
KCA1 141743Z 08012KT 34/23 A2995 RMK A01 T03360227  RH  053%=      5-min Rain = 0
KCA1 141744Z 09010KT 34/23 A2995 RMK A01 T03360228  RH  053%=      5-min Rain = 0
KCA1 141745Z 08009KT 34/23 A2995 RMK A01 T03370227  RH  053%=      5-min Rain = 0
KCA1 141746Z 07007KT 34/23 A2995 RMK A01 T03360226  RH  053%=      5-min Rain = 0
KCA1 141747Z 08006KT 33/23 A2995 RMK A01 T03330227  RH  054%=      5-min Rain = 0
KCA1 141748Z 06006KT 33/23 A2995 RMK A01 T03340229  RH  054%=      5-min Rain = 0
KCA1 141749Z 07010KT 34/23 A2995 RMK A01 T03350228  RH  054%=      5-min Rain = 0
KCA1 141750Z 07010KT 34/23 A2995 RMK A01 T03360226  RH  053%=      5-min Rain = 0
KCA1 141751Z 08009KT 34/23 A2995 RMK A01 T03370229  RH  053%=      5-min Rain = 0
KCA1 141752Z 08011KT 34/23 A2995 RMK A01 T03380227  RH  052%=      5-min Rain = 0
KCA1 141753Z 08009KT 34/23 A2995 RMK A01 T03380228  RH  053%=      5-min Rain = 0
KCA1 141754Z 09012KT 34/23 A2995 RMK A01 T03390228  RH  052%=      5-min Rain = 0
KCA1 141755Z 10010KT 34/23 A2995 RMK A01 T03410226  RH  051%=      5-min Rain = 0
KCA1 141756Z 08010KT 34/23 A2995 RMK A01 T03400227  RH  052%=      5-min Rain = 0
KCA1 141757Z 08010KT 34/23 A2995 RMK A01 T03390225  RH  051%=      5-min Rain = 0
KCA1 141758Z 09010KT 34/22 A2995 RMK A01 T03390224  RH  051%=      5-min Rain = 0
KCA1 141759Z 09010KT 34/23 A2995 RMK A01 T03380225  RH  052%=      5-min Rain = 0
KCA1 141800Z 09007KT 34/23 A2994 RMK A01 T03370225  RH  052%=      5-min Rain = 0
KCA1 141801Z 09005KT 34/23 A2994 RMK A01 T03370227  RH  052%=      5-min Rain = 0
KCA1 141802Z 09008KT 34/23 A2994 RMK A01 T03380229  RH  053%=      5-min Rain = 0
KCA1 141803Z 08012KT 34/23 A2994 RMK A01 T03400227  RH  052%=      5-min Rain = 0
KCA1 141804Z 08010KT 34/23 A2994 RMK A01 T03400227  RH  052%=      5-min Rain = 0
KCA1 141805Z 09011KT 34/23 A2994 RMK A01 T03420226  RH  051%=      5-min Rain = 0
KCA1 141806Z 08010KT 34/22 A2994 RMK A01 T03440224  RH  050%=      5-min Rain = 0
KCA1 141807Z 07008KT 34/22 A2994 RMK A01 T03420222  RH  050%=      5-min Rain = 0
KCA1 141808Z 07008KT 34/22 A2994 RMK A01 T03410222  RH  050%=      5-min Rain = 0
KCA1 141809Z 10011KT 34/23 A2994 RMK A01 T03420226  RH  051%=      5-min Rain = 0
KCA1 141810Z 09012KT 35/22 A2994 RMK A01 T03460223  RH  049%=      5-min Rain = 0
KCA1 141811Z 07010KT 35/22 A2994 RMK A01 T03450221  RH  048%=      5-min Rain = 0
KCA1 141812Z 08009KT 35/22 A2994 RMK A01 T03450221  RH  049%=      5-min Rain = 0
KCA1 141813Z 09009KT 34/22 A2994 RMK A01 T03430223  RH  050%=      5-min Rain = 0
KCA1 141814Z 08011KT 34/23 A2994 RMK A01 T03420225  RH  051%=      5-min Rain = 0
KCA1 141815Z 09010KT 34/22 A2994 RMK A01 T03440223  RH  050%=      5-min Rain = 0
KCA1 141816Z 09008KT 35/23 A2994 RMK A01 T03460225  RH  049%=      5-min Rain = 0
KCA1 141817Z 09008KT 35/22 A2994 RMK A01 T03500224  RH  048%=      5-min Rain = 0
KCA1 141818Z 06009KT 35/22 A2994 RMK A01 T03510222  RH  047%=      5-min Rain = 0
KCA1 141819Z 06009KT 35/22 A2994 RMK A01 T03480219  RH  047%=      5-min Rain = 0
KCA1 141820Z 06006KT 35/22 A2994 RMK A01 T03460223  RH  049%=      5-min Rain = 0
KCA1 141821Z 08009KT 35/22 A2994 RMK A01 T03460221  RH  048%=      5-min Rain = 0
KCA1 141822Z 10011KT 35/22 A2994 RMK A01 T03470222  RH  049%=      5-min Rain = 0
KCA1 141823Z 10009KT 35/22 A2994 RMK A01 T03460220  RH  048%=      5-min Rain = 0
KCA1 141824Z 07007KT 35/22 A2994 RMK A01 T03470223  RH  049%=      5-min Rain = 0
KCA1 141825Z 07007KT 35/22 A2994 RMK A01 T03480224  RH  048%=      5-min Rain = 0
KCA1 141826Z 08010KT 35/23 A2994 RMK A01 T03500227  RH  049%=      5-min Rain = 0
KCA1 141827Z 07008KT 35/23 A2994 RMK A01 T03500225  RH  048%=      5-min Rain = 0
KCA1 141828Z 07008G14KT 35/22 A2994 RMK A01 T03470224  RH  049%=      5-min Rain = 0
KCA1 141829Z 08010G15KT 35/23 A2994 RMK A01 T03460227  RH  050%=      5-min Rain = 0
KCA1 141830Z 09010KT 35/23 A2994 RMK A01 T03490225  RH  049%=      5-min Rain = 0
KCA1 141831Z 08008KT 35/22 A2994 RMK A01 T03460224  RH  049%=      5-min Rain = 0
KCA1 141832Z 08012KT 35/22 A2994 RMK A01 T03450224  RH  050%=      5-min Rain = 0
KCA1 141833Z 10011KT 35/22 A2994 RMK A01 T03470219  RH  048%=      5-min Rain = 0
KCA1 141834Z 11009KT 35/22 A2994 RMK A01 T03470220  RH  048%=      5-min Rain = 0
KCA1 141835Z 10010KT 35/22 A2994 RMK A01 T03480221  RH  048%=      5-min Rain = 0
KCA1 141836Z 11014KT 35/22 A2994 RMK A01 T03490222  RH  048%=      5-min Rain = 0
KCA1 141837Z 10014KT 35/22 A2994 RMK A01 T03490221  RH  047%=      5-min Rain = 0
KCA1 141838Z 10013KT 35/22 A2994 RMK A01 T03470221  RH  048%=      5-min Rain = 0
KCA1 141839Z 10011G17KT 35/22 A2994 RMK A01 T03460218  RH  048%=      5-min Rain = 0
KCA1 141840Z 09014KT 35/22 A2994 RMK A01 T03450217  RH  048%=      5-min Rain = 0
KCA1 141841Z 09012KT 35/22 A2993 RMK A01 T03450216  RH  047%=      5-min Rain = 0
KCA1 141842Z 08011KT 35/22 A2993 RMK A01 T03480218  RH  047%=      5-min Rain = 0
KCA1 141843Z 06010KT 35/22 A2993 RMK A01 T03480218  RH  047%=      5-min Rain = 0
KCA1 141844Z 06010KT 35/22 A2993 RMK A01 T03480219  RH  047%=      5-min Rain = 0
KCA1 141845Z 10007KT 35/22 A2993 RMK A01 T03480222  RH  048%=      5-min Rain = 0
KCA1 141846Z 10009G14KT 35/22 A2993 RMK A01 T03490222  RH  048%=      5-min Rain = 0
KCA1 141847Z 09011KT 35/22 A2993 RMK A01 T03500220  RH  047%=      5-min Rain = 0
KCA1 141848Z 09010KT 35/22 A2993 RMK A01 T03480220  RH  047%=      5-min Rain = 0
KCA1 141849Z 10009KT 35/22 A2993 RMK A01 T03490219  RH  047%=      5-min Rain = 0
KCA1 141850Z 09010KT 35/22 A2993 RMK A01 T03500218  RH  046%=      5-min Rain = 0
KCA1 141851Z 08008KT 35/22 A2993 RMK A01 T03500219  RH  046%=      5-min Rain = 0
KCA1 141852Z 09008KT 35/22 A2993 RMK A01 T03500216  RH  046%=      5-min Rain = 0
KCA1 141853Z 08010KT 35/22 A2993 RMK A01 T03480219  RH  047%=      5-min Rain = 0
KCA1 141854Z 09010KT 35/22 A2993 RMK A01 T03510218  RH  046%=      5-min Rain = 0
KCA1 141855Z 09010KT 35/22 A2993 RMK A01 T03530216  RH  045%=      5-min Rain = 0
KCA1 141856Z 10012KT 35/22 A2993 RMK A01 T03520218  RH  046%=      5-min Rain = 0
KCA1 141857Z 09011KT 35/22 A2993 RMK A01 T03500221  RH  047%=      5-min Rain = 0
KCA1 141858Z 08006KT 35/22 A2993 RMK A01 T03500221  RH  047%=      5-min Rain = 0
KCA1 141859Z 09009KT 35/22 A2993 RMK A01 T03500223  RH  048%=      5-min Rain = 0
KCA1 141900Z 10012KT 35/22 A2993 RMK A01 T03530218  RH  046%=      5-min Rain = 0
KCA1 141901Z 10011KT 35/22 A2993 RMK A01 T03530217  RH  045%=      5-min Rain = 0
KCA1 141902Z 11010KT 35/22 A2993 RMK A01 T03520216  RH  045%=      5-min Rain = 0
KCA1 141903Z 09008KT 35/21 A2993 RMK A01 T03510213  RH  045%=      5-min Rain = 0
KCA1 141904Z 12010KT 35/21 A2993 RMK A01 T03500212  RH  045%=      5-min Rain = 0
KCA1 141905Z 13010KT 35/21 A2993 RMK A01 T03530208  RH  043%=      5-min Rain = 0
KCA1 141906Z 14012KT 36/21 A2993 RMK A01 T03550210  RH  043%=      5-min Rain = 0
KCA1 141907Z 14009KT 36/21 A2993 RMK A01 T03560207  RH  042%=      5-min Rain = 0
KCA1 141908Z 13007G12KT 36/21 A2993 RMK A01 T03560208  RH  042%=      5-min Rain = 0
KCA1 141909Z 12008KT 36/22 A2993 RMK A01 T03560219  RH  045%=      5-min Rain = 0
KCA1 141910Z 12007KT 36/22 A2993 RMK A01 T03600222  RH  045%=      5-min Rain = 0
KCA1 141911Z 14008KT 36/22 A2993 RMK A01 T03600223  RH  045%=      5-min Rain = 0
KCA1 141912Z 14010KT 36/22 A2993 RMK A01 T03600221  RH  045%=      5-min Rain = 0
KCA1 141913Z 12007KT 36/22 A2993 RMK A01 T03590221  RH  045%=      5-min Rain = 0
KCA1 141914Z 15008KT 36/22 A2992 RMK A01 T03580222  RH  045%=      5-min Rain = 0
KCA1 141915Z 13010KT 36/22 A2992 RMK A01 T03600220  RH  044%=      5-min Rain = 0
KCA1 141916Z 12010KT 36/22 A2993 RMK A01 T03620216  RH  043%=      5-min Rain = 0
KCA1 141917Z 10010KT 36/22 A2993 RMK A01 T03630215  RH  042%=      5-min Rain = 0
KCA1 141918Z 11007KT 36/22 A2992 RMK A01 T03610215  RH  043%=      5-min Rain = 0
KCA1 141919Z 14011KT 36/22 A2992 RMK A01 T03610217  RH  043%=      5-min Rain = 0
KCA1 141920Z 13011KT 36/22 A2992 RMK A01 T03620218  RH  043%=      5-min Rain = 0
KCA1 141921Z 13008KT 36/22 A2992 RMK A01 T03630219  RH  043%=      5-min Rain = 0
KCA1 141922Z 13010KT 36/22 A2992 RMK A01 T03640215  RH  042%=      5-min Rain = 0
KCA1 141923Z 12010KT 36/21 A2992 RMK A01 T03640210  RH  041%=      5-min Rain = 0
KCA1 141924Z 12009KT 36/21 A2992 RMK A01 T03640205  RH  040%=      5-min Rain = 0
KCA1 141925Z 12006KT 36/20 A2992 RMK A01 T03610201  RH  039%=      5-min Rain = 0
KCA1 141926Z 10004KT 36/20 A2992 RMK A01 T03590201  RH  040%=      5-min Rain = 0
KCA1 141927Z 11006KT 36/21 A2992 RMK A01 T03600207  RH  041%=      5-min Rain = 0
KCA1 141928Z 11008KT 36/21 A2992 RMK A01 T03600212  RH  042%=      5-min Rain = 0
KCA1 141929Z 09007KT 36/22 A2993 RMK A01 T03620218  RH  044%=      5-min Rain = 0
KCA1 141930Z 12009KT 36/22 A2992 RMK A01 T03600223  RH  045%=      5-min Rain = 0
KCA1 141931Z 12009G14KT 36/22 A2993 RMK A01 T03600221  RH  045%=      5-min Rain = 0
KCA1 141932Z 14009KT 36/22 A2992 RMK A01 T03600221  RH  045%=      5-min Rain = 0
KCA1 141933Z 15010KT 36/22 A2992 RMK A01 T03600221  RH  045%=      5-min Rain = 0
KCA1 141934Z 12006KT 36/22 A2992 RMK A01 T03620221  RH  044%=      5-min Rain = 0
KCA1 141935Z 10009KT 36/22 A2992 RMK A01 T03630220  RH  044%=      5-min Rain = 0
KCA1 141936Z 13010KT 36/22 A2992 RMK A01 T03620218  RH  044%=      5-min Rain = 0
KCA1 141937Z 12011KT 36/22 A2992 RMK A01 T03630218  RH  043%=      5-min Rain = 0
KCA1 141938Z 12012KT 36/22 A2992 RMK A01 T03640216  RH  042%=      5-min Rain = 0
KCA1 141939Z 12010KT 36/21 A2992 RMK A01 T03630213  RH  042%=      5-min Rain = 0
KCA1 141940Z 13010KT 36/21 A2992 RMK A01 T03610213  RH  042%=      5-min Rain = 0
KCA1 141941Z 13008KT 36/21 A2992 RMK A01 T03610213  RH  042%=      5-min Rain = 0
KCA1 141942Z 12007KT 36/22 A2992 RMK A01 T03620216  RH  043%=      5-min Rain = 0
KCA1 141943Z 10008KT 36/21 A2992 RMK A01 T03630214  RH  042%=      5-min Rain = 0
KCA1 141944Z 09007KT 36/21 A2992 RMK A01 T03620212  RH  042%=      5-min Rain = 0
KCA1 141945Z 12008KT 36/21 A2992 RMK A01 T03610213  RH  043%=      5-min Rain = 0
KCA1 141946Z 14009KT 36/21 A2992 RMK A01 T03610213  RH  042%=      5-min Rain = 0
KCA1 141947Z 15011KT 36/21 A2992 RMK A01 T03610211  RH  042%=      5-min Rain = 0
KCA1 141948Z 15008KT 36/21 A2992 RMK A01 T03620212  RH  042%=      5-min Rain = 0
KCA1 141949Z 15010G15KT 37/21 A2992 RMK A01 T03660214  RH  042%=      5-min Rain = 0
KCA1 141950Z 16009KT 37/21 A2992 RMK A01 T03690209  RH  039%=      5-min Rain = 0
KCA1 141951Z 14009KT 37/21 A2992 RMK A01 T03680210  RH  040%=      5-min Rain = 0
KCA1 141952Z 12010KT 37/21 A2992 RMK A01 T03670208  RH  040%=      5-min Rain = 0
KCA1 141953Z 14009KT 37/20 A2992 RMK A01 T03680204  RH  039%=      5-min Rain = 0
KCA1 141954Z 14007KT 37/20 A2992 RMK A01 T03670198  RH  037%=      5-min Rain = 0
KCA1 141955Z 14009KT 37/20 A2992 RMK A01 T03660203  RH  039%=      5-min Rain = 0
KCA1 141956Z 13007KT 37/20 A2992 RMK A01 T03660201  RH  038%=      5-min Rain = 0
KCA1 141957Z 13004KT 37/20 A2992 RMK A01 T03650199  RH  038%=      5-min Rain = 0
KCA1 141958Z 14005G10KT 36/20 A2992 RMK A01 T03640203  RH  039%=      5-min Rain = 0
KCA1 141959Z 11013KT 36/21 A2992 RMK A01 T03640207  RH  040%=      5-min Rain = 0
KCA1 142000Z 12011KT 36/21 A2992 RMK A01 T03640209  RH  041%=      5-min Rain = 0
KCA1 142001Z 12009KT 37/21 A2992 RMK A01 T03650205  RH  039%=      5-min Rain = 0
KCA1 142002Z 11011KT 36/21 A2992 RMK A01 T03630206  RH  040%=      5-min Rain = 0
KCA1 142003Z 10010KT 36/20 A2992 RMK A01 T03630204  RH  039%=      5-min Rain = 0
KCA1 142004Z 09009KT 36/20 A2992 RMK A01 T03630201  RH  039%=      5-min Rain = 0
KCA1 142005Z 09008KT 36/20 A2992 RMK A01 T03640200  RH  038%=      5-min Rain = 0
KCA1 142006Z 10006G13KT 36/20 A2992 RMK A01 T03630199  RH  038%=      5-min Rain = 0
KCA1 142007Z 10012KT 36/20 A2992 RMK A01 T03620200  RH  039%=      5-min Rain = 0
KCA1 142008Z 10011KT 36/20 A2992 RMK A01 T03610196  RH  038%=      5-min Rain = 0
KCA1 142009Z 10010KT 36/20 A2992 RMK A01 T03600199  RH  039%=      5-min Rain = 0
KCA1 142010Z 13010KT 36/20 A2992 RMK A01 T03620196  RH  038%=      5-min Rain = 0
KCA1 142011Z 12010KT 37/20 A2991 RMK A01 T03650195  RH  037%=      5-min Rain = 0
KCA1 142012Z 11007KT 37/19 A2991 RMK A01 T03660193  RH  036%=      5-min Rain = 0
KCA1 142013Z 11006KT 37/19 A2991 RMK A01 T03660191  RH  036%=      5-min Rain = 0
KCA1 142014Z 14006KT 36/20 A2991 RMK A01 T03640196  RH  037%=      5-min Rain = 0
KCA1 142015Z 14010KT 36/19 A2991 RMK A01 T03640190  RH  036%=      5-min Rain = 0
KCA1 142016Z 15008KT 37/19 A2991 RMK A01 T03670190  RH  036%=      5-min Rain = 0
KCA1 142017Z 13007KT 37/19 A2991 RMK A01 T03690193  RH  036%=      5-min Rain = 0
KCA1 142018Z 12009G14KT 37/20 A2991 RMK A01 T03700199  RH  037%=      5-min Rain = 0
KCA1 142019Z 10011KT 37/19 A2991 RMK A01 T03710193  RH  036%=      5-min Rain = 0
KCA1 142020Z 10007KT 37/19 A2991 RMK A01 T03690189  RH  035%=      5-min Rain = 0
KCA1 142021Z 13009KT 37/19 A2991 RMK A01 T03680192  RH  036%=      5-min Rain = 0
KCA1 142022Z 13007KT 37/20 A2991 RMK A01 T03680199  RH  037%=      5-min Rain = 0
KCA1 142023Z 11008KT 37/20 A2991 RMK A01 T03680197  RH  037%=      5-min Rain = 0
KCA1 142024Z 11008KT 37/20 A2991 RMK A01 T03680201  RH  038%=      5-min Rain = 0
KCA1 142025Z 11007KT 37/20 A2991 RMK A01 T03700197  RH  036%=      5-min Rain = 0
KCA1 142026Z 14008KT 37/20 A2991 RMK A01 T03690199  RH  037%=      5-min Rain = 0
KCA1 142027Z 12008KT 37/20 A2991 RMK A01 T03680200  RH  038%=      5-min Rain = 0
KCA1 142028Z 12009KT 37/20 A2991 RMK A01 T03650203  RH  039%=      5-min Rain = 0
KCA1 142029Z 12008KT 36/21 A2991 RMK A01 T03640205  RH  040%=      5-min Rain = 0
KCA1 142030Z 14006KT 36/21 A2991 RMK A01 T03620205  RH  040%=      5-min Rain = 0
KCA1 142031Z 12006KT 36/21 A299 RMK A01 T03620206  RH  040%=      5-min Rain = 0
KCA1 142032Z 12010KT 36/21 A299 RMK A01 T03630208  RH  041%=      5-min Rain = 0
KCA1 142033Z 14007KT 37/21 A299 RMK A01 T03660208  RH  040%=      5-min Rain = 0
KCA1 142034Z 13009KT 37/21 A299 RMK A01 T03680207  RH  039%=      5-min Rain = 0
KCA1 142035Z 13009KT 37/20 A299 RMK A01 T03690204  RH  038%=      5-min Rain = 0
KCA1 142036Z 15006KT 37/20 A299 RMK A01 T03710198  RH  037%=      5-min Rain = 0
KCA1 142037Z 13007KT 37/20 A299 RMK A01 T03740195  RH  035%=      5-min Rain = 0
KCA1 142038Z 15005KT 38/19 A299 RMK A01 T03750189  RH  034%=      5-min Rain = 0
KCA1 142039Z 14008KT 38/19 A299 RMK A01 T03750193  RH  035%=      5-min Rain = 0
KCA1 142040Z 13010KT 38/20 A299 RMK A01 T03770196  RH  035%=      5-min Rain = 0
KCA1 142041Z 11010KT 38/19 A299 RMK A01 T03780190  RH  033%=      5-min Rain = 0
KCA1 142042Z 12007KT 38/19 A299 RMK A01 T03750188  RH  034%=      5-min Rain = 0
KCA1 142043Z 13008KT 37/18 A299 RMK A01 T03730179  RH  032%=      5-min Rain = 0
KCA1 142044Z 14006KT 37/18 A299 RMK A01 T03720175  RH  032%=      5-min Rain = 0
KCA1 142045Z 13009KT 37/18 A299 RMK A01 T03730179  RH  032%=      5-min Rain = 0
KCA1 142046Z 13011KT 37/18 A299 RMK A01 T03720181  RH  033%=      5-min Rain = 0
KCA1 142047Z 12006KT 37/18 A299 RMK A01 T03710178  RH  032%=      5-min Rain = 0
KCA1 142048Z 12006KT 37/18 A299 RMK A01 T03700182  RH  033%=      5-min Rain = 0
KCA1 142049Z 12006KT 37/19 A299 RMK A01 T03710187  RH  034%=      5-min Rain = 0
KCA1 142050Z 11009KT 38/19 A299 RMK A01 T03750186  RH  033%=      5-min Rain = 0
KCA1 142051Z 14008KT 38/19 A299 RMK A01 T03750189  RH  034%=      5-min Rain = 0
KCA1 142052Z 14009KT 38/19 A299 RMK A01 T03770189  RH  033%=      5-min Rain = 0
KCA1 142053Z 13012KT 38/19 A299 RMK A01 T03770186  RH  033%=      5-min Rain = 0
KCA1 142054Z 13009KT 38/18 A299 RMK A01 T03750184  RH  033%=      5-min Rain = 0
KCA1 142055Z 10007KT 38/19 A299 RMK A01 T03750187  RH  033%=      5-min Rain = 0
KCA1 142056Z 13009KT 37/19 A299 RMK A01 T03740188  RH  034%=      5-min Rain = 0
KCA1 142057Z 14011KT 37/19 A2989 RMK A01 T03730193  RH  035%=      5-min Rain = 0
KCA1 142058Z 14011KT 37/19 A2989 RMK A01 T03730193  RH  035%=      5-min Rain = 0
KCA1 142059Z 12010KT 37/20 A2989 RMK A01 T03730196  RH  036%=      5-min Rain = 0
KCA1 142100Z 12009KT 37/20 A2989 RMK A01 T03740195  RH  035%=      5-min Rain = 0
KCA1 142101Z 10006KT 37/19 A2989 RMK A01 T03730194  RH  035%=      5-min Rain = 0
KCA1 142102Z 08007KT 37/19 A2989 RMK A01 T03720194  RH  036%=      5-min Rain = 0
KCA1 142103Z 10007G12KT 37/20 A2989 RMK A01 T03710195  RH  036%=      5-min Rain = 0
KCA1 142104Z 09009KT 37/20 A2989 RMK A01 T03720195  RH  036%=      5-min Rain = 0
KCA1 142105Z 08009KT 37/19 A2989 RMK A01 T03700193  RH  036%=      5-min Rain = 0
KCA1 142106Z 09010KT 37/20 A2989 RMK A01 T03690195  RH  036%=      5-min Rain = 0
KCA1 142107Z 10010KT 37/20 A2989 RMK A01 T03710195  RH  036%=      5-min Rain = 0
KCA1 142108Z 11012KT 37/19 A2989 RMK A01 T03720194  RH  035%=      5-min Rain = 0
KCA1 142109Z 11009KT 37/19 A2989 RMK A01 T03710192  RH  035%=      5-min Rain = 0
KCA1 142110Z 12011KT 37/19 A2989 RMK A01 T03690191  RH  035%=      5-min Rain = 0
KCA1 142111Z 12010KT 37/19 A2989 RMK A01 T03700192  RH  035%=      5-min Rain = 0
KCA1 142112Z 11011KT 37/19 A2989 RMK A01 T03710192  RH  035%=      5-min Rain = 0
KCA1 142113Z 12011KT 37/19 A2989 RMK A01 T03700191  RH  035%=      5-min Rain = 0
KCA1 142114Z 12010KT 37/19 A2989 RMK A01 T03690194  RH  036%=      5-min Rain = 0
KCA1 142115Z 13009KT 37/20 A2989 RMK A01 T03690195  RH  036%=      5-min Rain = 0
KCA1 142116Z 12006KT 37/19 A2989 RMK A01 T03700194  RH  036%=      5-min Rain = 0
KCA1 142117Z 11008KT 37/20 A2989 RMK A01 T03710196  RH  036%=      5-min Rain = 0
KCA1 142118Z 10008KT 37/19 A2989 RMK A01 T03710194  RH  036%=      5-min Rain = 0
KCA1 142119Z 12009KT 37/20 A2989 RMK A01 T03700196  RH  036%=      5-min Rain = 0
KCA1 142120Z 11010KT 37/20 A2989 RMK A01 T03700197  RH  037%=      5-min Rain = 0
KCA1 142121Z 10013KT 37/20 A2989 RMK A01 T03690197  RH  037%=      5-min Rain = 0
KCA1 142122Z 09012KT 37/20 A2989 RMK A01 T03690196  RH  037%=      5-min Rain = 0
KCA1 142123Z 09011KT 37/20 A2989 RMK A01 T03690195  RH  036%=      5-min Rain = 0
KCA1 142124Z 09009KT 37/20 A2989 RMK A01 T03680196  RH  037%=      5-min Rain = 0
KCA1 142125Z 13010KT 37/20 A2989 RMK A01 T03680195  RH  037%=      5-min Rain = 0
KCA1 142126Z 14010KT 37/19 A2989 RMK A01 T03700189  RH  035%=      5-min Rain = 0
KCA1 142127Z 14011KT 37/20 A2989 RMK A01 T03720195  RH  036%=      5-min Rain = 0
KCA1 142128Z 11010KT 37/20 A2989 RMK A01 T03720198  RH  036%=      5-min Rain = 0
KCA1 142129Z 12011KT 37/20 A2989 RMK A01 T03730197  RH  036%=      5-min Rain = 0
KCA1 142130Z 12012KT 37/20 A2989 RMK A01 T03720199  RH  036%=      5-min Rain = 0
KCA1 142131Z 11011KT 37/20 A2989 RMK A01 T03730198  RH  036%=      5-min Rain = 0
KCA1 142132Z 12012KT 37/20 A2989 RMK A01 T03740198  RH  036%=      5-min Rain = 0
KCA1 142133Z 12012KT 38/20 A2989 RMK A01 T03750199  RH  036%=      5-min Rain = 0
KCA1 142134Z 12011KT 37/20 A2989 RMK A01 T03730198  RH  036%=      5-min Rain = 0
KCA1 142135Z 12009KT 37/20 A2989 RMK A01 T03700201  RH  037%=      5-min Rain = 0
KCA1 142136Z 10012KT 37/20 A2989 RMK A01 T03700201  RH  037%=      5-min Rain = 0
KCA1 142137Z 11011KT 37/20 A2989 RMK A01 T03700201  RH  037%=      5-min Rain = 0
KCA1 142138Z 10010KT 37/20 A2988 RMK A01 T03700199  RH  037%=      5-min Rain = 0
KCA1 142139Z 10011KT 37/20 A2988 RMK A01 T03700199  RH  037%=      5-min Rain = 0
KCA1 142140Z 10013KT 37/20 A2988 RMK A01 T03710201  RH  037%=      5-min Rain = 0
KCA1 142141Z 11013KT 37/20 A2989 RMK A01 T03720196  RH  036%=      5-min Rain = 0
KCA1 142142Z 11010KT 37/19 A2988 RMK A01 T03700194  RH  036%=      5-min Rain = 0
KCA1 142143Z 11010KT 37/19 A2988 RMK A01 T03700193  RH  036%=      5-min Rain = 0
KCA1 142144Z 11013KT 37/20 A2988 RMK A01 T03690195  RH  036%=      5-min Rain = 0
KCA1 142145Z 10010KT 37/20 A2989 RMK A01 T03690195  RH  036%=      5-min Rain = 0
KCA1 142146Z 11012G17KT 37/20 A2988 RMK A01 T03690196  RH  036%=      5-min Rain = 0
KCA1 142147Z 10013KT 37/19 A2988 RMK A01 T03690193  RH  036%=      5-min Rain = 0
KCA1 142148Z 10011KT 37/19 A2989 RMK A01 T03690191  RH  035%=      5-min Rain = 0
KCA1 142149Z 10009KT 37/19 A2988 RMK A01 T03680192  RH  036%=      5-min Rain = 0
KCA1 142150Z 10012KT 37/19 A2988 RMK A01 T03670191  RH  036%=      5-min Rain = 0
KCA1 142151Z 10013KT 37/19 A2988 RMK A01 T03670192  RH  036%=      5-min Rain = 0
KCA1 142152Z 12012KT 37/19 A2988 RMK A01 T03680189  RH  035%=      5-min Rain = 0
KCA1 142153Z 12010KT 37/19 A2988 RMK A01 T03690189  RH  035%=      5-min Rain = 0
KCA1 142154Z 11013KT 37/19 A2988 RMK A01 T03700190  RH  035%=      5-min Rain = 0
KCA1 142155Z 11012KT 37/19 A2988 RMK A01 T03700186  RH  034%=      5-min Rain = 0
KCA1 142156Z 11010KT 37/19 A2988 RMK A01 T03690186  RH  034%=      5-min Rain = 0
KCA1 142157Z 13010KT 37/19 A2988 RMK A01 T03680187  RH  035%=      5-min Rain = 0
KCA1 142158Z 12008KT 37/19 A2988 RMK A01 T03700185  RH  034%=      5-min Rain = 0
KCA1 142159Z 12011KT 37/19 A2988 RMK A01 T03700187  RH  034%=      5-min Rain = 0
KCA1 142200Z 12011KT 37/19 A2988 RMK A01 T03710188  RH  034%=      5-min Rain = 0
KCA1 142201Z 12010KT 37/19 A2988 RMK A01 T03700193  RH  036%=      5-min Rain = 0
KCA1 142202Z 11010KT 37/20 A2988 RMK A01 T03710196  RH  036%=      5-min Rain = 0
KCA1 142203Z 10011KT 37/19 A2988 RMK A01 T03720192  RH  035%=      5-min Rain = 0
KCA1 142204Z 10010KT 37/19 A2988 RMK A01 T03700193  RH  035%=      5-min Rain = 0
KCA1 142205Z 10013KT 37/19 A2988 RMK A01 T03690194  RH  036%=      5-min Rain = 0
KCA1 142206Z 11012KT 37/20 A2989 RMK A01 T03690196  RH  036%=      5-min Rain = 0
KCA1 142207Z 11011KT 37/19 A2989 RMK A01 T03690191  RH  035%=      5-min Rain = 0
KCA1 142208Z 12012KT 37/19 A2989 RMK A01 T03690191  RH  035%=      5-min Rain = 0
KCA1 142209Z 13012KT 37/19 A2989 RMK A01 T03710190  RH  035%=      5-min Rain = 0
KCA1 142210Z 11012KT 37/19 A2989 RMK A01 T03710188  RH  034%=      5-min Rain = 0
KCA1 142211Z 12011KT 37/19 A2989 RMK A01 T03710188  RH  034%=      5-min Rain = 0
KCA1 142212Z 13011KT 37/19 A2988 RMK A01 T03720186  RH  034%=      5-min Rain = 0
KCA1 142213Z 14012KT 37/18 A2988 RMK A01 T03730184  RH  033%=      5-min Rain = 0
KCA1 142214Z 13012KT 37/18 A2989 RMK A01 T03730182  RH  033%=      5-min Rain = 0
KCA1 142215Z 13012KT 37/18 A2988 RMK A01 T03720182  RH  033%=      5-min Rain = 0
KCA1 142216Z 14009KT 37/18 A2988 RMK A01 T03710182  RH  033%=      5-min Rain = 0
KCA1 142217Z 13011KT 37/19 A2988 RMK A01 T03700185  RH  034%=      5-min Rain = 0
KCA1 142218Z 12011KT 37/19 A2988 RMK A01 T03710187  RH  034%=      5-min Rain = 0
KCA1 142219Z 11012KT 37/19 A2989 RMK A01 T03710187  RH  034%=      5-min Rain = 0
KCA1 142220Z 11011KT 37/19 A2988 RMK A01 T03700187  RH  034%=      5-min Rain = 0
KCA1 142221Z 11011KT 37/19 A2988 RMK A01 T03690187  RH  034%=      5-min Rain = 0
KCA1 142222Z 12011G16KT 37/19 A2988 RMK A01 T03680190  RH  035%=      5-min Rain = 0
KCA1 142223Z 12010KT 37/19 A2988 RMK A01 T03680188  RH  035%=      5-min Rain = 0
KCA1 142224Z 11009KT 37/19 A2988 RMK A01 T03690192  RH  035%=      5-min Rain = 0
KCA1 142225Z 10011KT 37/19 A2988 RMK A01 T03710193  RH  036%=      5-min Rain = 0
KCA1 142226Z 11011KT 37/19 A2988 RMK A01 T03710193  RH  035%=      5-min Rain = 0
KCA1 142227Z 10012KT 37/19 A2988 RMK A01 T03720192  RH  035%=      5-min Rain = 0
KCA1 142228Z 11010KT 37/19 A2988 RMK A01 T03710190  RH  035%=      5-min Rain = 0
KCA1 142229Z 10012KT 37/19 A2988 RMK A01 T03700190  RH  035%=      5-min Rain = 0
KCA1 142230Z 11013KT 37/19 A2988 RMK A01 T03700189  RH  035%=      5-min Rain = 0
KCA1 142231Z 10013KT 37/19 A2988 RMK A01 T03690188  RH  035%=      5-min Rain = 0
KCA1 142232Z 11012KT 37/19 A2988 RMK A01 T03680188  RH  035%=      5-min Rain = 0
KCA1 142233Z 10009KT 37/19 A2988 RMK A01 T03680187  RH  035%=      5-min Rain = 0
KCA1 142234Z 10012KT 37/19 A2988 RMK A01 T03680188  RH  035%=      5-min Rain = 0
KCA1 142235Z 11013KT 37/19 A2988 RMK A01 T03690187  RH  035%=      5-min Rain = 0
KCA1 142236Z 12012KT 37/19 A2988 RMK A01 T03700187  RH  034%=      5-min Rain = 0
KCA1 142237Z 13011KT 37/19 A2988 RMK A01 T03700186  RH  034%=      5-min Rain = 0
KCA1 142238Z 12012KT 37/19 A2988 RMK A01 T03700186  RH  034%=      5-min Rain = 0
KCA1 142239Z 12013KT 37/18 A2988 RMK A01 T03700182  RH  033%=      5-min Rain = 0
KCA1 142240Z 11011KT 37/18 A2988 RMK A01 T03700182  RH  033%=      5-min Rain = 0
KCA1 142241Z 12012KT 37/18 A2988 RMK A01 T03700184  RH  034%=      5-min Rain = 0
KCA1 142242Z 12011KT 37/19 A2988 RMK A01 T03700187  RH  034%=      5-min Rain = 0
KCA1 142243Z 12011KT 37/19 A2988 RMK A01 T03690189  RH  035%=      5-min Rain = 0
KCA1 142244Z 13013KT 37/19 A2988 RMK A01 T03700191  RH  035%=      5-min Rain = 0
KCA1 142245Z 12015KT 37/19 A2988 RMK A01 T03700192  RH  035%=      5-min Rain = 0
KCA1 142246Z 12012KT 37/19 A2988 RMK A01 T03690190  RH  035%=      5-min Rain = 0
KCA1 142247Z 12013KT 37/19 A2988 RMK A01 T03680190  RH  036%=      5-min Rain = 0
KCA1 142248Z 12011KT 37/19 A2987 RMK A01 T03670192  RH  036%=      5-min Rain = 0
KCA1 142249Z 11009KT 37/20 A2987 RMK A01 T03670195  RH  037%=      5-min Rain = 0
KCA1 142250Z 10012KT 37/19 A2987 RMK A01 T03690194  RH  036%=      5-min Rain = 0
KCA1 142251Z 10014KT 37/19 A2987 RMK A01 T03690191  RH  035%=      5-min Rain = 0
KCA1 142252Z 11012KT 37/19 A2987 RMK A01 T03680193  RH  036%=      5-min Rain = 0
KCA1 142253Z 12011KT 37/19 A2987 RMK A01 T03680193  RH  036%=      5-min Rain = 0
KCA1 142254Z 11011KT 37/19 A2987 RMK A01 T03670192  RH  036%=      5-min Rain = 0
KCA1 142255Z 10009KT 37/19 A2987 RMK A01 T03650191  RH  036%=      5-min Rain = 0
KCA1 142256Z 10008KT 36/19 A2987 RMK A01 T03640192  RH  037%=      5-min Rain = 0
KCA1 142257Z 11011KT 36/19 A2987 RMK A01 T03630190  RH  036%=      5-min Rain = 0
KCA1 142258Z 11012KT 36/19 A2987 RMK A01 T03610189  RH  036%=      5-min Rain = 0
KCA1 142259Z 11014KT 36/19 A2987 RMK A01 T03610186  RH  036%=      5-min Rain = 0
KCA1 142300Z 11012KT 36/19 A2987 RMK A01 T03600186  RH  036%=      5-min Rain = 0
KCA1 142301Z 12011KT 36/19 A2987 RMK A01 T03600188  RH  036%=      5-min Rain = 0
KCA1 142302Z 12013KT 36/19 A2987 RMK A01 T03600188  RH  037%=      5-min Rain = 0
KCA1 142303Z 12012KT 36/19 A2987 RMK A01 T03590189  RH  037%=      5-min Rain = 0
KCA1 142304Z 12010KT 36/19 A2987 RMK A01 T03580191  RH  037%=      5-min Rain = 0
KCA1 142305Z 12013KT 36/19 A2987 RMK A01 T03580192  RH  038%=      5-min Rain = 0
KCA1 142306Z 12013KT 36/19 A2987 RMK A01 T03580192  RH  038%=      5-min Rain = 0
KCA1 142307Z 12012KT 36/19 A2987 RMK A01 T03580192  RH  038%=      5-min Rain = 0
KCA1 142308Z 11011KT 36/19 A2987 RMK A01 T03570193  RH  038%=      5-min Rain = 0
KCA1 142309Z 13011KT 36/20 A2987 RMK A01 T03570195  RH  039%=      5-min Rain = 0
KCA1 142310Z 12012KT 36/19 A2987 RMK A01 T03570194  RH  038%=      5-min Rain = 0
KCA1 142311Z 12012KT 36/19 A2987 RMK A01 T03570191  RH  038%=      5-min Rain = 0
KCA1 142312Z 12012KT 36/19 A2987 RMK A01 T03570192  RH  038%=      5-min Rain = 0
KCA1 142313Z 12011KT 36/19 A2987 RMK A01 T03570193  RH  038%=      5-min Rain = 0
KCA1 142314Z 12012KT 36/19 A2987 RMK A01 T03570193  RH  038%=      5-min Rain = 0
KCA1 142315Z 12014KT 36/19 A2987 RMK A01 T03570192  RH  038%=      5-min Rain = 0
KCA1 142316Z 12013KT 36/19 A2987 RMK A01 T03570192  RH  038%=      5-min Rain = 0
KCA1 142317Z 12011KT 36/19 A2987 RMK A01 T03570193  RH  038%=      5-min Rain = 0
KCA1 142318Z 12011KT 36/20 A2987 RMK A01 T03570195  RH  039%=      5-min Rain = 0
KCA1 142319Z 12012KT 36/19 A2987 RMK A01 T03570192  RH  038%=      5-min Rain = 0
KCA1 142320Z 12011KT 36/19 A2987 RMK A01 T03570192  RH  038%=      5-min Rain = 0
KCA1 142321Z 12012KT 36/19 A2987 RMK A01 T03580192  RH  038%=      5-min Rain = 0
KCA1 142322Z 13011KT 36/19 A2987 RMK A01 T03600192  RH  037%=      5-min Rain = 0
KCA1 142323Z 12014KT 36/19 A2987 RMK A01 T03610192  RH  037%=      5-min Rain = 0
KCA1 142324Z 12012KT 36/19 A2987 RMK A01 T03610191  RH  037%=      5-min Rain = 0
KCA1 142325Z 12011KT 36/19 A2987 RMK A01 T03620193  RH  037%=      5-min Rain = 0
KCA1 142326Z 12009KT 36/20 A2987 RMK A01 T03630197  RH  038%=      5-min Rain = 0
KCA1 142327Z 12011KT 37/20 A2987 RMK A01 T03650197  RH  038%=      5-min Rain = 0
KCA1 142328Z 12012KT 37/20 A2987 RMK A01 T03660195  RH  037%=      5-min Rain = 0
KCA1 142329Z 11011KT 37/19 A2987 RMK A01 T03660193  RH  036%=      5-min Rain = 0
KCA1 142330Z 11012KT 37/19 A2987 RMK A01 T03660193  RH  036%=      5-min Rain = 0
KCA1 142331Z 11012KT 37/19 A2987 RMK A01 T03650193  RH  036%=      5-min Rain = 0
KCA1 142332Z 11011KT 36/19 A2987 RMK A01 T03640194  RH  037%=      5-min Rain = 0
KCA1 142333Z 12012KT 36/19 A2988 RMK A01 T03630193  RH  037%=      5-min Rain = 0
KCA1 142334Z 12012KT 36/19 A2988 RMK A01 T03620193  RH  037%=      5-min Rain = 0
KCA1 142335Z 13010KT 36/19 A2988 RMK A01 T03610194  RH  038%=      5-min Rain = 0
KCA1 142336Z 12010KT 36/19 A2988 RMK A01 T03610193  RH  037%=      5-min Rain = 0
KCA1 142337Z 12009KT 36/20 A2988 RMK A01 T03600195  RH  038%=      5-min Rain = 0
KCA1 142338Z 13009KT 36/19 A2988 RMK A01 T03600194  RH  038%=      5-min Rain = 0
KCA1 142339Z 13011KT 36/19 A2988 RMK A01 T03600193  RH  037%=      5-min Rain = 0
KCA1 142340Z 13011KT 36/19 A2988 RMK A01 T03590190  RH  037%=      5-min Rain = 0
KCA1 142341Z 12011KT 36/19 A2988 RMK A01 T03570192  RH  038%=      5-min Rain = 0
KCA1 142342Z 13007KT 36/19 A2988 RMK A01 T03560192  RH  038%=      5-min Rain = 0
KCA1 142343Z 13010KT 35/19 A2988 RMK A01 T03540192  RH  039%=      5-min Rain = 0
KCA1 142344Z 12010KT 35/19 A2988 RMK A01 T03530189  RH  038%=      5-min Rain = 0
KCA1 142345Z 12011KT 35/19 A2988 RMK A01 T03530189  RH  038%=      5-min Rain = 0
KCA1 142346Z 12010KT 35/19 A2988 RMK A01 T03530188  RH  038%=      5-min Rain = 0
KCA1 142347Z 12009KT 35/19 A2988 RMK A01 T03530188  RH  038%=      5-min Rain = 0
KCA1 142348Z 12012KT 35/19 A2988 RMK A01 T03520186  RH  038%=      5-min Rain = 0
KCA1 142349Z 12012KT 35/18 A2988 RMK A01 T03520184  RH  037%=      5-min Rain = 0
KCA1 142350Z 11008KT 35/19 A2988 RMK A01 T03520186  RH  038%=      5-min Rain = 0
KCA1 142351Z 11007KT 35/19 A2988 RMK A01 T03510189  RH  039%=      5-min Rain = 0
KCA1 142352Z 11007KT 35/19 A2988 RMK A01 T03500189  RH  039%=      5-min Rain = 0
KCA1 142353Z 11007KT 35/19 A2988 RMK A01 T03490188  RH  039%=      5-min Rain = 0
KCA1 142354Z 12007KT 35/19 A2988 RMK A01 T03480189  RH  039%=      5-min Rain = 0
KCA1 142355Z 12009KT 35/19 A2988 RMK A01 T03470188  RH  039%=      5-min Rain = 0
KCA1 142356Z 12008KT 35/19 A2989 RMK A01 T03460187  RH  039%=      5-min Rain = 0
KCA1 142357Z 12007KT 35/19 A2989 RMK A01 T03460186  RH  039%=      5-min Rain = 0
KCA1 142358Z 13007KT 35/19 A2989 RMK A01 T03460188  RH  039%=      5-min Rain = 0
KCA1 142359Z 13007KT 35/19 A2989 RMK A01 T03450188  RH  040%=      5-min Rain = 0
KCA1 150000Z 13007KT 35/19 A2989 RMK A01 T03450187  RH  039%=      5-min Rain = 0
KCA1 150001Z 13006KT 35/19 A2989 RMK A01 T03450188  RH  040%=      5-min Rain = 0
KCA1 150002Z 13007KT 34/19 A2989 RMK A01 T03440188  RH  040%=      5-min Rain = 0
KCA1 150003Z 12007KT 34/19 A2989 RMK A01 T03430187  RH  040%=      5-min Rain = 0
KCA1 150004Z 12007KT 34/19 A2989 RMK A01 T03430187  RH  040%=      5-min Rain = 0
KCA1 150005Z 12006KT 34/19 A2989 RMK A01 T03430188  RH  040%=      5-min Rain = 0
KCA1 150006Z 12005KT 34/19 A2989 RMK A01 T03420190  RH  041%=      5-min Rain = 0
KCA1 150007Z 12006KT 34/19 A2989 RMK A01 T03410190  RH  041%=      5-min Rain = 0
KCA1 150008Z 11006KT 34/19 A2989 RMK A01 T03410191  RH  041%=      5-min Rain = 0
KCA1 150009Z 11006KT 34/19 A2989 RMK A01 T03400191  RH  041%=      5-min Rain = 0
KCA1 150010Z 11006KT 34/19 A2989 RMK A01 T03400191  RH  041%=      5-min Rain = 0
KCA1 150011Z 11006KT 34/19 A2989 RMK A01 T03400192  RH  042%=      5-min Rain = 0
KCA1 150012Z 11005KT 34/19 A2988 RMK A01 T03390191  RH  042%=      5-min Rain = 0
KCA1 150013Z 12005KT 34/19 A2988 RMK A01 T03390192  RH  042%=      5-min Rain = 0
KCA1 150014Z 12005KT 34/19 A2988 RMK A01 T03380192  RH  042%=      5-min Rain = 0
KCA1 150015Z 12006KT 34/19 A2989 RMK A01 T03380193  RH  042%=      5-min Rain = 0
KCA1 150016Z 12004KT 34/20 A2989 RMK A01 T03370195  RH  043%=      5-min Rain = 0
KCA1 150017Z 12005KT 34/20 A2989 RMK A01 T03370195  RH  043%=      5-min Rain = 0
KCA1 150018Z 12005KT 34/20 A2989 RMK A01 T03360195  RH  044%=      5-min Rain = 0
KCA1 150019Z 12005KT 34/19 A2989 RMK A01 T03350194  RH  043%=      5-min Rain = 0
KCA1 150020Z 12006KT 34/19 A2989 RMK A01 T03350193  RH  043%=      5-min Rain = 0
KCA1 150021Z 12005KT 34/19 A2989 RMK A01 T03350194  RH  043%=      5-min Rain = 0
KCA1 150022Z 12006KT 33/19 A2989 RMK A01 T03340194  RH  044%=      5-min Rain = 0
KCA1 150023Z 12007KT 33/19 A2989 RMK A01 T03340193  RH  043%=      5-min Rain = 0
KCA1 150024Z 12006KT 33/19 A2989 RMK A01 T03340192  RH  043%=      5-min Rain = 0
KCA1 150025Z 12007KT 33/19 A2989 RMK A01 T03340192  RH  043%=      5-min Rain = 0
KCA1 150026Z 12007KT 33/19 A2989 RMK A01 T03340190  RH  043%=      5-min Rain = 0
KCA1 150027Z 12006KT 33/19 A2989 RMK A01 T03340189  RH  043%=      5-min Rain = 0
KCA1 150028Z 12006KT 33/19 A2989 RMK A01 T03340188  RH  042%=      5-min Rain = 0
KCA1 150029Z 12007KT 33/19 A2989 RMK A01 T03340187  RH  042%=      5-min Rain = 0
KCA1 150030Z 12007KT 33/19 A2989 RMK A01 T03340187  RH  042%=      5-min Rain = 0
KCA1 150031Z 12006KT 33/19 A2989 RMK A01 T03330187  RH  042%=      5-min Rain = 0
KCA1 150032Z 12006KT 33/19 A2989 RMK A01 T03330187  RH  042%=      5-min Rain = 0
KCA1 150033Z 12007KT 33/19 A2989 RMK A01 T03330187  RH  042%=      5-min Rain = 0
KCA1 150034Z 12006KT 33/19 A2989 RMK A01 T03330187  RH  042%=      5-min Rain = 0
KCA1 150035Z 11006KT 33/19 A2989 RMK A01 T03330188  RH  042%=      5-min Rain = 0
KCA1 150036Z 12006KT 33/19 A2989 RMK A01 T03320189  RH  043%=      5-min Rain = 0
KCA1 150037Z 13007KT 33/19 A2989 RMK A01 T03320188  RH  043%=      5-min Rain = 0
KCA1 150038Z 12006KT 33/19 A2989 RMK A01 T03310189  RH  043%=      5-min Rain = 0
KCA1 150039Z 12006KT 33/19 A2989 RMK A01 T03310189  RH  043%=      5-min Rain = 0
KCA1 150040Z 12006KT 33/19 A2989 RMK A01 T03300188  RH  043%=      5-min Rain = 0
KCA1 150041Z 12006KT 33/19 A299 RMK A01 T03300189  RH  043%=      5-min Rain = 0
KCA1 150042Z 12006KT 33/19 A299 RMK A01 T03300189  RH  043%=      5-min Rain = 0
KCA1 150043Z 12005KT 33/19 A299 RMK A01 T03290189  RH  044%=      5-min Rain = 0
KCA1 150044Z 12005KT 33/19 A299 RMK A01 T03290190  RH  044%=      5-min Rain = 0
KCA1 150045Z 11005KT 33/19 A299 RMK A01 T03290189  RH  044%=      5-min Rain = 0
KCA1 150046Z 11006KT 33/19 A299 RMK A01 T03290189  RH  044%=      5-min Rain = 0
KCA1 150047Z 11006KT 33/19 A299 RMK A01 T03280188  RH  044%=      5-min Rain = 0
KCA1 150048Z 11006KT 33/19 A299 RMK A01 T03280189  RH  044%=      5-min Rain = 0
KCA1 150049Z 11006KT 33/19 A299 RMK A01 T03280189  RH  044%=      5-min Rain = 0
KCA1 150050Z 11006KT 33/19 A299 RMK A01 T03270190  RH  044%=      5-min Rain = 0
KCA1 150051Z 11006KT 33/19 A299 RMK A01 T03270190  RH  044%=      5-min Rain = 0
KCA1 150052Z 11006KT 33/19 A299 RMK A01 T03260189  RH  044%=      5-min Rain = 0
KCA1 150053Z 11006KT 33/19 A299 RMK A01 T03260188  RH  044%=      5-min Rain = 0
KCA1 150054Z 11007KT 33/19 A299 RMK A01 T03260189  RH  044%=      5-min Rain = 0
KCA1 150055Z 11006KT 33/19 A299 RMK A01 T03260188  RH  044%=      5-min Rain = 0
KCA1 150056Z 11005KT 33/19 A299 RMK A01 T03260188  RH  044%=      5-min Rain = 0
KCA1 150057Z 11006KT 33/19 A2991 RMK A01 T03260189  RH  044%=      5-min Rain = 0
KCA1 150058Z 11006KT 33/19 A2991 RMK A01 T03250189  RH  044%=      5-min Rain = 0
KCA1 150059Z 11006KT 33/19 A2991 RMK A01 T03250189  RH  045%=      5-min Rain = 0
KCA1 150100Z 11006KT 33/19 A2991 RMK A01 T03250189  RH  045%=      5-min Rain = 0
KCA1 150101Z 11006KT 33/19 A2991 RMK A01 T03250190  RH  045%=      5-min Rain = 0
KCA1 150102Z 11006KT 33/19 A2991 RMK A01 T03250190  RH  045%=      5-min Rain = 0
KCA1 150103Z 11006KT 32/19 A2991 RMK A01 T03240190  RH  045%=      5-min Rain = 0
KCA1 150104Z 12006KT 32/19 A2991 RMK A01 T03240190  RH  045%=      5-min Rain = 0
KCA1 150105Z 12006KT 32/19 A2991 RMK A01 T03240190  RH  045%=      5-min Rain = 0
KCA1 150106Z 12005KT 32/19 A2991 RMK A01 T03240190  RH  045%=      5-min Rain = 0
KCA1 150107Z 12006KT 32/19 A2991 RMK A01 T03230191  RH  046%=      5-min Rain = 0
KCA1 150108Z 12006KT 32/19 A2991 RMK A01 T03220191  RH  046%=      5-min Rain = 0
KCA1 150109Z 13006KT 32/19 A299 RMK A01 T03220191  RH  046%=      5-min Rain = 0
KCA1 150110Z 14006KT 32/19 A299 RMK A01 T03210191  RH  046%=      5-min Rain = 0
KCA1 150111Z 14006KT 32/19 A299 RMK A01 T03200192  RH  047%=      5-min Rain = 0
KCA1 150112Z 15006KT 32/19 A299 RMK A01 T03190192  RH  047%=      5-min Rain = 0
KCA1 150113Z 14006KT 32/19 A2991 RMK A01 T03180194  RH  048%=      5-min Rain = 0
KCA1 150114Z 14007KT 32/19 A2991 RMK A01 T03160194  RH  048%=      5-min Rain = 0
KCA1 150115Z 13007KT 32/19 A2991 RMK A01 T03150194  RH  049%=      5-min Rain = 0
KCA1 150116Z 12007KT 31/19 A2991 RMK A01 T03140194  RH  049%=      5-min Rain = 0
KCA1 150117Z 12007KT 31/19 A2991 RMK A01 T03130193  RH  049%=      5-min Rain = 0
KCA1 150118Z 11007KT 31/19 A2991 RMK A01 T03130192  RH  049%=      5-min Rain = 0
KCA1 150119Z 11007KT 31/19 A2991 RMK A01 T03130193  RH  049%=      5-min Rain = 0
KCA1 150120Z 11007KT 31/19 A2991 RMK A01 T03130193  RH  049%=      5-min Rain = 0
KCA1 150121Z 11007KT 31/19 A2991 RMK A01 T03120192  RH  049%=      5-min Rain = 0
KCA1 150122Z 11007KT 31/19 A2991 RMK A01 T03110192  RH  049%=      5-min Rain = 0
KCA1 150123Z 11008KT 31/19 A2991 RMK A01 T03110191  RH  049%=      5-min Rain = 0
KCA1 150124Z 10007KT 31/19 A2991 RMK A01 T03110189  RH  048%=      5-min Rain = 0
KCA1 150125Z 11009KT 31/19 A2991 RMK A01 T03110187  RH  048%=      5-min Rain = 0
KCA1 150126Z 11009KT 31/19 A2991 RMK A01 T03120185  RH  047%=      5-min Rain = 0
KCA1 150127Z 11008KT 31/18 A2991 RMK A01 T03140184  RH  046%=      5-min Rain = 0
KCA1 150128Z 11008KT 32/19 A2991 RMK A01 T03150185  RH  046%=      5-min Rain = 0
KCA1 150129Z 11008KT 32/19 A2991 RMK A01 T03150186  RH  046%=      5-min Rain = 0
KCA1 150130Z 11008KT 32/19 A2991 RMK A01 T03150187  RH  047%=      5-min Rain = 0
KCA1 150131Z 11009KT 31/19 A2991 RMK A01 T03140185  RH  046%=      5-min Rain = 0
KCA1 150132Z 11008KT 31/18 A2991 RMK A01 T03140184  RH  046%=      5-min Rain = 0
KCA1 150133Z 11009KT 31/18 A2991 RMK A01 T03140184  RH  046%=      5-min Rain = 0
KCA1 150134Z 10008KT 32/18 A2991 RMK A01 T03150184  RH  046%=      5-min Rain = 0
KCA1 150135Z 08008KT 31/19 A2991 RMK A01 T03140187  RH  047%=      5-min Rain = 0
KCA1 150136Z 09008KT 31/19 A2991 RMK A01 T03120191  RH  049%=      5-min Rain = 0
KCA1 150137Z 09009KT 31/19 A2991 RMK A01 T03080191  RH  050%=      5-min Rain = 0
KCA1 150138Z 09009KT 31/19 A2991 RMK A01 T03070191  RH  050%=      5-min Rain = 0
KCA1 150139Z 10010KT 31/19 A2991 RMK A01 T03060189  RH  050%=      5-min Rain = 0
KCA1 150140Z 10010KT 31/19 A2991 RMK A01 T03060186  RH  049%=      5-min Rain = 0
KCA1 150141Z 10010KT 31/19 A2991 RMK A01 T03070185  RH  048%=      5-min Rain = 0
KCA1 150142Z 10010KT 31/18 A2991 RMK A01 T03090183  RH  047%=      5-min Rain = 0
KCA1 150143Z 10009KT 31/18 A2991 RMK A01 T03100183  RH  047%=      5-min Rain = 0
KCA1 150144Z 10009KT 31/18 A299 RMK A01 T03110182  RH  046%=      5-min Rain = 0
KCA1 150145Z 11008KT 31/18 A299 RMK A01 T03110183  RH  046%=      5-min Rain = 0
KCA1 150146Z 10008KT 31/18 A299 RMK A01 T03110183  RH  047%=      5-min Rain = 0
KCA1 150147Z 11008KT 31/18 A299 RMK A01 T03100183  RH  047%=      5-min Rain = 0
KCA1 150148Z 11007KT 31/18 A299 RMK A01 T03090184  RH  047%=      5-min Rain = 0
KCA1 150149Z 11007KT 31/18 A299 RMK A01 T03090184  RH  048%=      5-min Rain = 0
KCA1 150150Z 11007KT 31/19 A299 RMK A01 T03080185  RH  048%=      5-min Rain = 0
KCA1 150151Z 11006KT 31/19 A299 RMK A01 T03070185  RH  048%=      5-min Rain = 0
KCA1 150152Z 11006KT 31/19 A299 RMK A01 T03060186  RH  049%=      5-min Rain = 0
KCA1 150153Z 11007KT 31/19 A2991 RMK A01 T03050186  RH  049%=      5-min Rain = 0
KCA1 150154Z 11007KT 30/19 A2991 RMK A01 T03040186  RH  049%=      5-min Rain = 0
KCA1 150155Z 11008KT 30/19 A2991 RMK A01 T03040186  RH  049%=      5-min Rain = 0
KCA1 150156Z 11009KT 30/19 A2991 RMK A01 T03040186  RH  049%=      5-min Rain = 0
KCA1 150157Z 11009KT 31/19 A2991 RMK A01 T03050186  RH  049%=      5-min Rain = 0
KCA1 150158Z 10009KT 31/19 A2991 RMK A01 T03050186  RH  049%=      5-min Rain = 0
KCA1 150159Z 10008KT 31/19 A2991 RMK A01 T03060186  RH  049%=      5-min Rain = 0
KCA1 150200Z 10008KT 31/19 A2991 RMK A01 T03060187  RH  049%=      5-min Rain = 0
KCA1 150201Z 10008KT 31/19 A2991 RMK A01 T03060187  RH  049%=      5-min Rain = 0
KCA1 150202Z 10008KT 31/19 A2991 RMK A01 T03060188  RH  049%=      5-min Rain = 0
KCA1 150203Z 09008KT 31/19 A2991 RMK A01 T03050188  RH  050%=      5-min Rain = 0
KCA1 150204Z 09008KT 31/19 A2991 RMK A01 T03050188  RH  050%=      5-min Rain = 0
KCA1 150205Z 09008KT 30/19 A2991 RMK A01 T03040189  RH  050%=      5-min Rain = 0
KCA1 150206Z 09008KT 30/19 A2991 RMK A01 T03030189  RH  050%=      5-min Rain = 0
KCA1 150207Z 09007KT 30/19 A2991 RMK A01 T03020189  RH  051%=      5-min Rain = 0
KCA1 150208Z 08007KT 30/19 A2992 RMK A01 T03020190  RH  051%=      5-min Rain = 0
KCA1 150209Z 09007KT 30/19 A2992 RMK A01 T03010190  RH  051%=      5-min Rain = 0
KCA1 150210Z 08008KT 30/19 A2992 RMK A01 T03010191  RH  052%=      5-min Rain = 0
KCA1 150211Z 09008KT 30/19 A2992 RMK A01 T03010191  RH  052%=      5-min Rain = 0
KCA1 150212Z 09007KT 30/19 A2992 RMK A01 T03000191  RH  052%=      5-min Rain = 0
KCA1 150213Z 08007KT 30/19 A2992 RMK A01 T03000191  RH  052%=      5-min Rain = 0
KCA1 150214Z 09007KT 30/19 A2992 RMK A01 T03000192  RH  052%=      5-min Rain = 0
KCA1 150215Z 08007KT 30/19 A2992 RMK A01 T03000192  RH  052%=      5-min Rain = 0
KCA1 150216Z 08008KT 30/19 A2992 RMK A01 T03000192  RH  052%=      5-min Rain = 0
KCA1 150217Z 08008KT 30/19 A2992 RMK A01 T02990192  RH  053%=      5-min Rain = 0
KCA1 150218Z 09008KT 30/19 A2992 RMK A01 T02980192  RH  053%=      5-min Rain = 0
KCA1 150219Z 09009KT 30/19 A2993 RMK A01 T02970192  RH  053%=      5-min Rain = 0
KCA1 150220Z 09008KT 30/19 A2993 RMK A01 T02970192  RH  053%=      5-min Rain = 0
KCA1 150221Z 08008KT 30/19 A2993 RMK A01 T02980192  RH  053%=      5-min Rain = 0
KCA1 150222Z 09008KT 30/19 A2993 RMK A01 T02970192  RH  053%=      5-min Rain = 0
KCA1 150223Z 08007KT 30/19 A2993 RMK A01 T02970192  RH  053%=      5-min Rain = 0
KCA1 150224Z 08008KT 30/19 A2993 RMK A01 T02970192  RH  053%=      5-min Rain = 0
KCA1 150225Z 08008KT 30/19 A2993 RMK A01 T02970193  RH  053%=      5-min Rain = 0
KCA1 150226Z 08008KT 30/19 A2993 RMK A01 T02960192  RH  054%=      5-min Rain = 0
KCA1 150227Z 08009KT 30/19 A2993 RMK A01 T02960193  RH  054%=      5-min Rain = 0
KCA1 150228Z 08008KT 30/19 A2993 RMK A01 T02960193  RH  054%=      5-min Rain = 0
KCA1 150229Z 08008KT 30/19 A2993 RMK A01 T02960192  RH  054%=      5-min Rain = 0
KCA1 150230Z 08008KT 30/19 A2993 RMK A01 T02960193  RH  054%=      5-min Rain = 0
KCA1 150231Z 08008KT 30/19 A2994 RMK A01 T02960193  RH  054%=      5-min Rain = 0
KCA1 150232Z 08008KT 30/19 A2994 RMK A01 T02960193  RH  054%=      5-min Rain = 0
KCA1 150233Z 08007KT 30/19 A2994 RMK A01 T02960193  RH  054%=      5-min Rain = 0
KCA1 150234Z 07007KT 30/19 A2994 RMK A01 T02960193  RH  054%=      5-min Rain = 0
KCA1 150235Z 07007KT 30/19 A2994 RMK A01 T02950193  RH  054%=      5-min Rain = 0
KCA1 150236Z 07007KT 30/19 A2994 RMK A01 T02950193  RH  054%=      5-min Rain = 0
KCA1 150237Z 07006KT 30/19 A2994 RMK A01 T02950193  RH  054%=      5-min Rain = 0
KCA1 150238Z 07007KT 29/19 A2994 RMK A01 T02940193  RH  055%=      5-min Rain = 0
KCA1 150239Z 07007KT 29/19 A2994 RMK A01 T02930193  RH  055%=      5-min Rain = 0
KCA1 150240Z 07008KT 29/19 A2994 RMK A01 T02910193  RH  056%=      5-min Rain = 0
KCA1 150241Z 07008KT 29/19 A2994 RMK A01 T02900193  RH  056%=      5-min Rain = 0
KCA1 150242Z 07008KT 29/19 A2995 RMK A01 T02890193  RH  056%=      5-min Rain = 0
KCA1 150243Z 07009KT 29/19 A2995 RMK A01 T02880193  RH  057%=      5-min Rain = 0
KCA1 150244Z 07009KT 29/19 A2995 RMK A01 T02870193  RH  057%=      5-min Rain = 0
KCA1 150245Z 07009KT 29/19 A2995 RMK A01 T02870193  RH  057%=      5-min Rain = 0
KCA1 150246Z 07009KT 29/19 A2995 RMK A01 T02870193  RH  057%=      5-min Rain = 0
KCA1 150247Z 07009KT 29/19 A2995 RMK A01 T02870193  RH  057%=      5-min Rain = 0
KCA1 150248Z 07009KT 29/19 A2995 RMK A01 T02870193  RH  057%=      5-min Rain = 0
KCA1 150249Z 06008KT 29/19 A2995 RMK A01 T02870194  RH  057%=      5-min Rain = 0
KCA1 150250Z 07009KT 29/19 A2995 RMK A01 T02860193  RH  057%=      5-min Rain = 0
KCA1 150251Z 07008KT 29/19 A2995 RMK A01 T02860194  RH  057%=      5-min Rain = 0
KCA1 150252Z 07009KT 29/19 A2995 RMK A01 T02860193  RH  057%=      5-min Rain = 0
KCA1 150253Z 07008KT 29/19 A2995 RMK A01 T02860194  RH  057%=      5-min Rain = 0
KCA1 150254Z 07008KT 29/19 A2995 RMK A01 T02860194  RH  057%=      5-min Rain = 0
KCA1 150255Z 07008KT 29/19 A2995 RMK A01 T02850194  RH  058%=      5-min Rain = 0
KCA1 150256Z 07008KT 29/19 A2995 RMK A01 T02850194  RH  058%=      5-min Rain = 0
KCA1 150257Z 07008KT 29/19 A2995 RMK A01 T02850194  RH  058%=      5-min Rain = 0
KCA1 150258Z 07009KT 29/19 A2995 RMK A01 T02850194  RH  058%=      5-min Rain = 0
KCA1 150259Z 07009KT 29/19 A2995 RMK A01 T02850194  RH  058%=      5-min Rain = 0
KCA1 150300Z 07008KT 29/19 A2996 RMK A01 T02850194  RH  058%=      5-min Rain = 0
KCA1 150301Z 07008KT 29/19 A2996 RMK A01 T02860194  RH  058%=      5-min Rain = 0
KCA1 150302Z 07008KT 29/19 A2996 RMK A01 T02860194  RH  057%=      5-min Rain = 0
KCA1 150303Z 07009KT 29/19 A2996 RMK A01 T02860194  RH  057%=      5-min Rain = 0
KCA1 150304Z 07008KT 29/19 A2996 RMK A01 T02870194  RH  057%=      5-min Rain = 0
KCA1 150305Z 07008KT 29/19 A2996 RMK A01 T02870194  RH  057%=      5-min Rain = 0
KCA1 150306Z 07008KT 29/19 A2996 RMK A01 T02880194  RH  057%=      5-min Rain = 0
KCA1 150307Z 07008KT 29/19 A2996 RMK A01 T02880194  RH  057%=      5-min Rain = 0
KCA1 150308Z 07008KT 29/19 A2997 RMK A01 T02870194  RH  057%=      5-min Rain = 0
KCA1 150309Z 06008KT 29/19 A2997 RMK A01 T02870194  RH  057%=      5-min Rain = 0
KCA1 150310Z 07007KT 29/19 A2997 RMK A01 T02870194  RH  057%=      5-min Rain = 0
KCA1 150311Z 06007KT 29/19 A2998 RMK A01 T02870194  RH  057%=      5-min Rain = 0
KCA1 150312Z 07007KT 29/19 A2998 RMK A01 T02860194  RH  058%=      5-min Rain = 0
KCA1 150313Z 07007KT 29/19 A2998 RMK A01 T02860194  RH  058%=      5-min Rain = 0
KCA1 150314Z 07007KT 29/19 A2998 RMK A01 T02850194  RH  058%=      5-min Rain = 0
KCA1 150315Z 07008KT 29/19 A2998 RMK A01 T02850194  RH  058%=      5-min Rain = 0
KCA1 150316Z 07007KT 29/19 A2998 RMK A01 T02850194  RH  058%=      5-min Rain = 0
KCA1 150317Z 07007KT 29/19 A2998 RMK A01 T02850194  RH  058%=      5-min Rain = 0
KCA1 150318Z 07007KT 29/19 A2998 RMK A01 T02850194  RH  058%=      5-min Rain = 0
KCA1 150319Z 07007KT 29/19 A2998 RMK A01 T02850194  RH  058%=      5-min Rain = 0
KCA1 150320Z 07007KT 28/19 A2998 RMK A01 T02840194  RH  058%=      5-min Rain = 0
KCA1 150321Z 07007KT 28/19 A2998 RMK A01 T02840194  RH  058%=      5-min Rain = 0
KCA1 150322Z 07007KT 28/19 A2998 RMK A01 T02840194  RH  058%=      5-min Rain = 0
KCA1 150323Z 07008KT 28/20 A2998 RMK A01 T02840195  RH  058%=      5-min Rain = 0
KCA1 150324Z 07008KT 28/20 A2998 RMK A01 T02840195  RH  058%=      5-min Rain = 0
KCA1 150325Z 07007KT 28/20 A2998 RMK A01 T02830195  RH  059%=      5-min Rain = 0
KCA1 150326Z 07008KT 28/19 A2998 RMK A01 T02830194  RH  059%=      5-min Rain = 0
KCA1 150327Z 07008KT 28/20 A2998 RMK A01 T02830195  RH  059%=      5-min Rain = 0
KCA1 150328Z 07008KT 28/20 A2998 RMK A01 T02830195  RH  059%=      5-min Rain = 0
KCA1 150329Z 07008KT 28/20 A2998 RMK A01 T02830195  RH  059%=      5-min Rain = 0
KCA1 150330Z 07008KT 28/20 A2998 RMK A01 T02820195  RH  059%=      5-min Rain = 0
KCA1 150331Z 07008KT 28/20 A2998 RMK A01 T02820195  RH  059%=      5-min Rain = 0
KCA1 150332Z 07008KT 28/20 A2998 RMK A01 T02820195  RH  059%=      5-min Rain = 0
KCA1 150333Z 07008KT 28/20 A2998 RMK A01 T02820196  RH  059%=      5-min Rain = 0
KCA1 150334Z 07008KT 28/20 A2998 RMK A01 T02820195  RH  059%=      5-min Rain = 0
KCA1 150335Z 07007KT 28/20 A2998 RMK A01 T02820195  RH  059%=      5-min Rain = 0
KCA1 150336Z 07007KT 28/20 A2998 RMK A01 T02820195  RH  059%=      5-min Rain = 0
KCA1 150337Z 07007KT 28/20 A2998 RMK A01 T02820196  RH  060%=      5-min Rain = 0
KCA1 150338Z 07007KT 28/20 A2998 RMK A01 T02810196  RH  060%=      5-min Rain = 0
KCA1 150339Z 06007KT 28/20 A2998 RMK A01 T02810196  RH  060%=      5-min Rain = 0
KCA1 150340Z 07007KT 28/20 A2998 RMK A01 T02800196  RH  060%=      5-min Rain = 0
KCA1 150341Z 06007KT 28/20 A2998 RMK A01 T02790196  RH  061%=      5-min Rain = 0
KCA1 150342Z 06006KT 28/20 A2998 RMK A01 T02790196  RH  061%=      5-min Rain = 0
KCA1 150343Z 05006KT 28/20 A2998 RMK A01 T02780196  RH  061%=      5-min Rain = 0
KCA1 150344Z 05006KT 28/20 A2998 RMK A01 T02780196  RH  061%=      5-min Rain = 0
KCA1 150345Z 05006KT 28/20 A2999 RMK A01 T02780196  RH  061%=      5-min Rain = 0
KCA1 150346Z 05006KT 28/20 A2999 RMK A01 T02770196  RH  061%=      5-min Rain = 0
KCA1 150347Z 04006KT 28/20 A2999 RMK A01 T02760196  RH  062%=      5-min Rain = 0
KCA1 150348Z 04005KT 28/20 A2999 RMK A01 T02760197  RH  062%=      5-min Rain = 0
KCA1 150349Z 04005KT 28/20 A2999 RMK A01 T02750196  RH  062%=      5-min Rain = 0
KCA1 150350Z 03005KT 28/20 A2999 RMK A01 T02750196  RH  062%=      5-min Rain = 0
KCA1 150351Z 03005KT 28/20 A2999 RMK A01 T02750196  RH  062%=      5-min Rain = 0
KCA1 150352Z 03005KT 27/20 A2999 RMK A01 T02740196  RH  062%=      5-min Rain = 0
KCA1 150353Z 02005KT 27/20 A30 RMK A01 T02740196  RH  062%=      5-min Rain = 0
KCA1 150354Z 02005KT 27/20 A30 RMK A01 T02740196  RH  062%=      5-min Rain = 0
KCA1 150355Z 02005KT 27/20 A30 RMK A01 T02740196  RH  063%=      5-min Rain = 0
KCA1 150356Z 01004KT 27/20 A30 RMK A01 T02740197  RH  063%=      5-min Rain = 0
KCA1 150357Z 36003KT 27/20 A30 RMK A01 T02740197  RH  063%=      5-min Rain = 0
KCA1 150358Z 33003KT 27/20 A3001 RMK A01 T02740197  RH  063%=      5-min Rain = 0
KCA1 150359Z 29004KT 27/20 A3001 RMK A01 T02730197  RH  063%=      5-min Rain = 0
KCA1 150400Z 27007KT 27/20 A3001 RMK A01 T02730197  RH  063%=      5-min Rain = 0
KCA1 150401Z 27010KT 27/20 A3002 RMK A01 T02720198  RH  064%=      5-min Rain = 0
KCA1 150402Z 26013KT 27/20 A3003 RMK A01 T02720198  RH  064%=      5-min Rain = 0
KCA1 150403Z 27015KT 27/20 A3003 RMK A01 T02720197  RH  064%=      5-min Rain = 0
KCA1 150404Z 29014G20KT 28/20 A3003 RMK A01 T02750195  RH  062%=      5-min Rain = 0
KCA1 150405Z 30016G21KT 28/20 A3004 RMK A01 T02780195  RH  060%=      5-min Rain = 0
KCA1 150406Z 29020G26KT 28/19 A3003 RMK A01 T02820194  RH  059%=      5-min Rain = 0
KCA1 150407Z 30021KT 29/19 A3004 RMK A01 T02860193  RH  057%=      5-min Rain = 0
KCA1 150408Z 31017G23KT 29/19 A3004 RMK A01 T02920192  RH  055%=      5-min Rain = 0
KCA1 150409Z 32014KT 30/19 A3004 RMK A01 T02960191  RH  053%=      5-min Rain = 0
KCA1 150410Z 31012KT 30/19 A3004 RMK A01 T02950189  RH  053%=      5-min Rain = 0
KCA1 150411Z 30011KT 30/19 A3004 RMK A01 T02950190  RH  053%=      5-min Rain = 0
KCA1 150412Z 31009KT 30/19 A3004 RMK A01 T02950190  RH  053%=      5-min Rain = 0
KCA1 150413Z 31008KT 30/19 A3004 RMK A01 T02950190  RH  053%=      5-min Rain = 0
KCA1 150414Z 31010KT 30/19 A3004 RMK A01 T02960191  RH  053%=      5-min Rain = 0
KCA1 150415Z 31012KT 30/19 A3004 RMK A01 T02950189  RH  053%=      5-min Rain = 0
KCA1 150416Z 31012KT 30/19 A3004 RMK A01 T02970186  RH  051%=      5-min Rain = 0
KCA1 150417Z 30011KT 30/19 A3004 RMK A01 T02990186  RH  051%=      5-min Rain = 0
KCA1 150418Z 30008KT 30/19 A3004 RMK A01 T03000186  RH  050%=      5-min Rain = 0
KCA1 150419Z 30007KT 30/19 A3004 RMK A01 T03000186  RH  050%=      5-min Rain = 0
KCA1 150420Z 30009KT 30/19 A3003 RMK A01 T02990186  RH  051%=      5-min Rain = 0
KCA1 150421Z 30009KT 30/19 A3003 RMK A01 T02980185  RH  051%=      5-min Rain = 0
KCA1 150422Z 29010KT 30/18 A3003 RMK A01 T02980182  RH  050%=      5-min Rain = 0
KCA1 150423Z 29011KT 30/18 A3003 RMK A01 T02980180  RH  049%=      5-min Rain = 0
KCA1 150424Z 30012KT 30/18 A3003 RMK A01 T02980179  RH  049%=      5-min Rain = 0
KCA1 150425Z 30010KT 30/18 A3003 RMK A01 T02970178  RH  049%=      5-min Rain = 0
KCA1 150426Z 29011KT 30/18 A3003 RMK A01 T02960178  RH  049%=      5-min Rain = 0
KCA1 150427Z 30011KT 30/18 A3003 RMK A01 T02950177  RH  049%=      5-min Rain = 0
KCA1 150428Z 29013KT 29/18 A3003 RMK A01 T02940177  RH  049%=      5-min Rain = 0
KCA1 150429Z 29014G19KT 29/18 A3003 RMK A01 T02930176  RH  049%=      5-min Rain = 0
KCA1 150430Z 30013KT 29/18 A3003 RMK A01 T02920176  RH  049%=      5-min Rain = 0
KCA1 150431Z 30012KT 29/18 A3003 RMK A01 T02920176  RH  050%=      5-min Rain = 0
KCA1 150432Z 29011KT 29/18 A3003 RMK A01 T02900175  RH  050%=      5-min Rain = 0
KCA1 150433Z 29010KT 29/18 A3003 RMK A01 T02890175  RH  050%=      5-min Rain = 0
KCA1 150434Z 29011KT 29/18 A3003 RMK A01 T02890175  RH  050%=      5-min Rain = 0
KCA1 150435Z 28010KT 29/18 A3003 RMK A01 T02880175  RH  051%=      5-min Rain = 0
KCA1 150436Z 28009KT 29/18 A3003 RMK A01 T02870175  RH  051%=      5-min Rain = 0
KCA1 150437Z 27008KT 29/18 A3004 RMK A01 T02860176  RH  051%=      5-min Rain = 0
KCA1 150438Z 27008KT 29/18 A3003 RMK A01 T02850176  RH  052%=      5-min Rain = 0
KCA1 150439Z 27009KT 28/18 A3003 RMK A01 T02840176  RH  052%=      5-min Rain = 0
KCA1 150440Z 28006KT 28/18 A3003 RMK A01 T02830176  RH  052%=      5-min Rain = 0
KCA1 150441Z 28007KT 28/18 A3003 RMK A01 T02830175  RH  052%=      5-min Rain = 0
KCA1 150442Z 28007KT 28/17 A3003 RMK A01 T02820174  RH  052%=      5-min Rain = 0
KCA1 150443Z 27007KT 28/17 A3003 RMK A01 T02810174  RH  052%=      5-min Rain = 0
KCA1 150444Z 27006KT 28/17 A3003 RMK A01 T02800172  RH  052%=      5-min Rain = 0
KCA1 150445Z 27006KT 28/17 A3003 RMK A01 T02800172  RH  052%=      5-min Rain = 0
KCA1 150446Z 27007KT 28/17 A3003 RMK A01 T02800167  RH  050%=      5-min Rain = 0
KCA1 150447Z 27007KT 28/16 A3003 RMK A01 T02810164  RH  049%=      5-min Rain = 0
KCA1 150448Z 28005KT 28/17 A3003 RMK A01 T02820165  RH  049%=      5-min Rain = 0
KCA1 150449Z 28008KT 28/16 A3003 RMK A01 T02820163  RH  048%=      5-min Rain = 0
KCA1 150450Z 28006KT 28/16 A3003 RMK A01 T02830163  RH  048%=      5-min Rain = 0
KCA1 150451Z 27006KT 28/16 A3002 RMK A01 T02840159  RH  047%=      5-min Rain = 0
KCA1 150452Z 26006KT 28/16 A3002 RMK A01 T02840160  RH  047%=      5-min Rain = 0
KCA1 150453Z 25005KT 28/16 A3002 RMK A01 T02840158  RH  046%=      5-min Rain = 0
KCA1 150454Z 27004KT 28/16 A3002 RMK A01 T02840161  RH  047%=      5-min Rain = 0
KCA1 150455Z 26004KT 28/16 A3002 RMK A01 T02830160  RH  047%=      5-min Rain = 0
KCA1 150456Z 24006KT 28/16 A3002 RMK A01 T02820159  RH  047%=      5-min Rain = 0
KCA1 150457Z 25011G16KT 28/16 A3002 RMK A01 T02820155  RH  046%=      5-min Rain = 0
KCA1 150458Z 25013KT 28/15 A3002 RMK A01 T02830150  RH  044%=      5-min Rain = 0
KCA1 150459Z 26009KT 28/15 A3002 RMK A01 T02840150  RH  044%=      5-min Rain = 0

Page generated in 0.1197 seconds.